﻿<?xml version="1.0" encoding="UTF-8" standalone="no" ?>
<gpx xmlns="http://www.topografix.com/GPX/1/1" creator="CompeGPS" version="1.1" xmlns:xsi="http://www.w3.org/2001/XMLSchema-instance" xsi:schemaLocation="http://www.topografix.com/GPX/1/1 http://www.topografix.com/GPX/1/1/gpx.xsd http://www.garmin.com/xmlschemas/GpxExtensions/v3 http://www.garmin.com/xmlschemas/GpxExtensionsv3.xsd http://www.garmin.com/xmlschemas/TrackPointExtension/v1 http://www.garmin.com/xmlschemas/TrackPointExtensionv1.xsd" xmlns:gpxtpx="http://www.garmin.com/xmlschemas/TrackPointExtension/v1">
  <metadata>
    <link href="http://www.compegps.com">
      <text>CompeGPS TEAM, SL</text>
    </link>
    <time>2018-12-16T18:43:28Z</time>
    <bounds maxlat="44.644224" maxlon="6.723412" minlat="44.620539" minlon="6.712492"/>
  </metadata>
  <trk>
    <name>Rando_291</name>
    <trkseg>
      <trkpt lat="44.620972" lon="6.720092">
        <ele>1667.7</ele>
        <time>2018-06-23T09:49:36Z</time>
      </trkpt>
      <trkpt lat="44.621243" lon="6.720185">
        <ele>1710.5</ele>
        <time>2018-06-23T09:49:52Z</time>
      </trkpt>
      <trkpt lat="44.621310" lon="6.720407">
        <ele>1731.5</ele>
        <time>2018-06-23T09:50:02Z</time>
      </trkpt>
      <trkpt lat="44.621348" lon="6.720508">
        <ele>1737.8</ele>
        <time>2018-06-23T09:50:09Z</time>
      </trkpt>
      <trkpt lat="44.621357" lon="6.720633">
        <ele>1748.6</ele>
        <time>2018-06-23T09:50:25Z</time>
      </trkpt>
      <trkpt lat="44.621282" lon="6.720682">
        <ele>1756.8</ele>
        <time>2018-06-23T09:50:47Z</time>
      </trkpt>
      <trkpt lat="44.621270" lon="6.720685">
        <ele>1757.0</ele>
        <time>2018-06-23T09:50:48Z</time>
      </trkpt>
      <trkpt lat="44.621112" lon="6.720650">
        <ele>1760.8</ele>
        <time>2018-06-23T09:51:02Z</time>
      </trkpt>
      <trkpt lat="44.621030" lon="6.720690">
        <ele>1761.0</ele>
        <time>2018-06-23T09:51:09Z</time>
      </trkpt>
      <trkpt lat="44.620965" lon="6.720768">
        <ele>1761.8</ele>
        <time>2018-06-23T09:51:16Z</time>
      </trkpt>
      <trkpt lat="44.620860" lon="6.720947">
        <ele>1766.0</ele>
        <time>2018-06-23T09:51:35Z</time>
      </trkpt>
      <trkpt lat="44.620740" lon="6.721102">
        <ele>1767.4</ele>
        <time>2018-06-23T09:51:49Z</time>
      </trkpt>
      <trkpt lat="44.620728" lon="6.721115">
        <ele>1767.5</ele>
        <time>2018-06-23T09:51:50Z</time>
      </trkpt>
      <trkpt lat="44.620640" lon="6.721288">
        <ele>1768.9</ele>
        <time>2018-06-23T09:52:03Z</time>
      </trkpt>
      <trkpt lat="44.620605" lon="6.721402">
        <ele>1770.4</ele>
        <time>2018-06-23T09:52:10Z</time>
      </trkpt>
      <trkpt lat="44.620552" lon="6.721623">
        <ele>1771.8</ele>
        <time>2018-06-23T09:52:22Z</time>
      </trkpt>
      <trkpt lat="44.620538" lon="6.721730">
        <ele>1772.6</ele>
        <time>2018-06-23T09:52:28Z</time>
      </trkpt>
      <trkpt lat="44.620543" lon="6.721853">
        <ele>1774.5</ele>
        <time>2018-06-23T09:52:35Z</time>
      </trkpt>
      <trkpt lat="44.620567" lon="6.721970">
        <ele>1776.5</ele>
        <time>2018-06-23T09:52:43Z</time>
      </trkpt>
      <trkpt lat="44.620642" lon="6.722038">
        <ele>1779.4</ele>
        <time>2018-06-23T09:52:59Z</time>
      </trkpt>
      <trkpt lat="44.620648" lon="6.722047">
        <ele>1779.5</ele>
        <time>2018-06-23T09:53:00Z</time>
      </trkpt>
      <trkpt lat="44.620798" lon="6.722135">
        <ele>1783.0</ele>
        <time>2018-06-23T09:53:14Z</time>
      </trkpt>
      <trkpt lat="44.620967" lon="6.722190">
        <ele>1786.1</ele>
        <time>2018-06-23T09:53:35Z</time>
      </trkpt>
      <trkpt lat="44.621047" lon="6.722240">
        <ele>1787.6</ele>
        <time>2018-06-23T09:53:43Z</time>
      </trkpt>
      <trkpt lat="44.621133" lon="6.722245">
        <ele>1789.1</ele>
        <time>2018-06-23T09:53:56Z</time>
      </trkpt>
      <trkpt lat="44.621190" lon="6.722152">
        <ele>1788.0</ele>
        <time>2018-06-23T09:54:03Z</time>
      </trkpt>
      <trkpt lat="44.621202" lon="6.722147">
        <ele>1787.9</ele>
        <time>2018-06-23T09:54:04Z</time>
      </trkpt>
      <trkpt lat="44.621440" lon="6.722123">
        <ele>1787.1</ele>
        <time>2018-06-23T09:54:24Z</time>
      </trkpt>
      <trkpt lat="44.621615" lon="6.722127">
        <ele>1787.6</ele>
        <time>2018-06-23T09:54:41Z</time>
      </trkpt>
      <trkpt lat="44.621695" lon="6.722177">
        <ele>1787.9</ele>
        <time>2018-06-23T09:54:48Z</time>
      </trkpt>
      <trkpt lat="44.621768" lon="6.722245">
        <ele>1788.4</ele>
        <time>2018-06-23T09:54:55Z</time>
      </trkpt>
      <trkpt lat="44.621853" lon="6.722290">
        <ele>1789.4</ele>
        <time>2018-06-23T09:55:13Z</time>
      </trkpt>
      <trkpt lat="44.621968" lon="6.722383">
        <ele>1790.3</ele>
        <time>2018-06-23T09:55:29Z</time>
      </trkpt>
      <trkpt lat="44.622138" lon="6.722438">
        <ele>1790.9</ele>
        <time>2018-06-23T09:55:43Z</time>
      </trkpt>
      <trkpt lat="44.622198" lon="6.722527">
        <ele>1791.8</ele>
        <time>2018-06-23T09:55:51Z</time>
      </trkpt>
      <trkpt lat="44.622285" lon="6.722495">
        <ele>1792.0</ele>
        <time>2018-06-23T09:56:03Z</time>
      </trkpt>
      <trkpt lat="44.622442" lon="6.722385">
        <ele>1794.4</ele>
        <time>2018-06-23T09:56:21Z</time>
      </trkpt>
      <trkpt lat="44.622452" lon="6.722380">
        <ele>1794.5</ele>
        <time>2018-06-23T09:56:22Z</time>
      </trkpt>
      <trkpt lat="44.622585" lon="6.722262">
        <ele>1796.6</ele>
        <time>2018-06-23T09:56:33Z</time>
      </trkpt>
      <trkpt lat="44.622652" lon="6.722188">
        <ele>1798.1</ele>
        <time>2018-06-23T09:56:41Z</time>
      </trkpt>
      <trkpt lat="44.622755" lon="6.722003">
        <ele>1802.1</ele>
        <time>2018-06-23T09:57:01Z</time>
      </trkpt>
      <trkpt lat="44.622802" lon="6.721900">
        <ele>1805.1</ele>
        <time>2018-06-23T09:57:12Z</time>
      </trkpt>
      <trkpt lat="44.622865" lon="6.721802">
        <ele>1810.1</ele>
        <time>2018-06-23T09:57:26Z</time>
      </trkpt>
      <trkpt lat="44.622878" lon="6.721795">
        <ele>1810.8</ele>
        <time>2018-06-23T09:57:27Z</time>
      </trkpt>
      <trkpt lat="44.623007" lon="6.721663">
        <ele>1819.0</ele>
        <time>2018-06-23T09:57:42Z</time>
      </trkpt>
      <trkpt lat="44.623231" lon="6.721587">
        <ele>1828.0</ele>
        <time>2018-06-23T09:58:09Z</time>
      </trkpt>
      <trkpt lat="44.623318" lon="6.721570">
        <ele>1833.1</ele>
        <time>2018-06-23T09:58:23Z</time>
      </trkpt>
      <trkpt lat="44.623422" lon="6.721530">
        <ele>1837.8</ele>
        <time>2018-06-23T09:58:35Z</time>
      </trkpt>
      <trkpt lat="44.623595" lon="6.721488">
        <ele>1847.1</ele>
        <time>2018-06-23T09:58:56Z</time>
      </trkpt>
      <trkpt lat="44.623660" lon="6.721408">
        <ele>1851.9</ele>
        <time>2018-06-23T09:59:08Z</time>
      </trkpt>
      <trkpt lat="44.623740" lon="6.721362">
        <ele>1854.5</ele>
        <time>2018-06-23T09:59:20Z</time>
      </trkpt>
      <trkpt lat="44.623807" lon="6.721278">
        <ele>1858.1</ele>
        <time>2018-06-23T09:59:31Z</time>
      </trkpt>
      <trkpt lat="44.623892" lon="6.721265">
        <ele>1860.9</ele>
        <time>2018-06-23T09:59:39Z</time>
      </trkpt>
      <trkpt lat="44.623900" lon="6.721265">
        <ele>1861.1</ele>
        <time>2018-06-23T09:59:40Z</time>
      </trkpt>
      <trkpt lat="44.624043" lon="6.721187">
        <ele>1864.0</ele>
        <time>2018-06-23T10:00:05Z</time>
      </trkpt>
      <trkpt lat="44.624167" lon="6.721028">
        <ele>1868.1</ele>
        <time>2018-06-23T10:00:24Z</time>
      </trkpt>
      <trkpt lat="44.624240" lon="6.720972">
        <ele>1869.5</ele>
        <time>2018-06-23T10:00:33Z</time>
      </trkpt>
      <trkpt lat="44.624313" lon="6.720898">
        <ele>1871.3</ele>
        <time>2018-06-23T10:00:43Z</time>
      </trkpt>
      <trkpt lat="44.624317" lon="6.720905">
        <ele>1870.8</ele>
        <time>2018-06-23T10:00:44Z</time>
      </trkpt>
      <trkpt lat="44.624435" lon="6.720740">
        <ele>1864.9</ele>
        <time>2018-06-23T10:01:51Z</time>
      </trkpt>
      <trkpt lat="44.624440" lon="6.720735">
        <ele>1864.5</ele>
        <time>2018-06-23T10:01:52Z</time>
      </trkpt>
      <trkpt lat="44.624673" lon="6.720603">
        <ele>1858.0</ele>
        <time>2018-06-23T10:02:32Z</time>
      </trkpt>
      <trkpt lat="44.624833" lon="6.720517">
        <ele>1859.8</ele>
        <time>2018-06-23T10:02:56Z</time>
      </trkpt>
      <trkpt lat="44.624848" lon="6.720512">
        <ele>1860.0</ele>
        <time>2018-06-23T10:02:57Z</time>
      </trkpt>
      <trkpt lat="44.624965" lon="6.720585">
        <ele>1859.3</ele>
        <time>2018-06-23T10:04:16Z</time>
      </trkpt>
      <trkpt lat="44.624967" lon="6.720650">
        <ele>1859.5</ele>
        <time>2018-06-23T10:04:17Z</time>
      </trkpt>
      <trkpt lat="44.625068" lon="6.720747">
        <ele>1861.9</ele>
        <time>2018-06-23T10:04:45Z</time>
      </trkpt>
      <trkpt lat="44.625123" lon="6.720835">
        <ele>1864.0</ele>
        <time>2018-06-23T10:05:04Z</time>
      </trkpt>
      <trkpt lat="44.625175" lon="6.720937">
        <ele>1865.3</ele>
        <time>2018-06-23T10:05:17Z</time>
      </trkpt>
      <trkpt lat="44.625182" lon="6.720938">
        <ele>1865.4</ele>
        <time>2018-06-23T10:05:18Z</time>
      </trkpt>
      <trkpt lat="44.625273" lon="6.720790">
        <ele>1868.5</ele>
        <time>2018-06-23T10:05:40Z</time>
      </trkpt>
      <trkpt lat="44.625318" lon="6.720683">
        <ele>1870.5</ele>
        <time>2018-06-23T10:05:51Z</time>
      </trkpt>
      <trkpt lat="44.625380" lon="6.720455">
        <ele>1870.3</ele>
        <time>2018-06-23T10:06:17Z</time>
      </trkpt>
      <trkpt lat="44.625405" lon="6.720332">
        <ele>1868.8</ele>
        <time>2018-06-23T10:06:33Z</time>
      </trkpt>
      <trkpt lat="44.625565" lon="6.720338">
        <ele>1866.5</ele>
        <time>2018-06-23T10:07:18Z</time>
      </trkpt>
      <trkpt lat="44.625648" lon="6.720293">
        <ele>1866.5</ele>
        <time>2018-06-23T10:07:27Z</time>
      </trkpt>
      <trkpt lat="44.625712" lon="6.720218">
        <ele>1867.4</ele>
        <time>2018-06-23T10:07:35Z</time>
      </trkpt>
      <trkpt lat="44.625873" lon="6.720135">
        <ele>1870.4</ele>
        <time>2018-06-23T10:07:54Z</time>
      </trkpt>
      <trkpt lat="44.626015" lon="6.720008">
        <ele>1874.3</ele>
        <time>2018-06-23T10:08:09Z</time>
      </trkpt>
      <trkpt lat="44.626173" lon="6.719910">
        <ele>1876.9</ele>
        <time>2018-06-23T10:08:28Z</time>
      </trkpt>
      <trkpt lat="44.626263" lon="6.719882">
        <ele>1877.1</ele>
        <time>2018-06-23T10:08:38Z</time>
      </trkpt>
      <trkpt lat="44.626393" lon="6.719750">
        <ele>1878.9</ele>
        <time>2018-06-23T10:08:59Z</time>
      </trkpt>
      <trkpt lat="44.626493" lon="6.719545">
        <ele>1886.9</ele>
        <time>2018-06-23T10:09:32Z</time>
      </trkpt>
      <trkpt lat="44.626545" lon="6.719442">
        <ele>1889.3</ele>
        <time>2018-06-23T10:09:46Z</time>
      </trkpt>
      <trkpt lat="44.626602" lon="6.719217">
        <ele>1892.1</ele>
        <time>2018-06-23T10:10:14Z</time>
      </trkpt>
      <trkpt lat="44.626687" lon="6.719195">
        <ele>1892.4</ele>
        <time>2018-06-23T10:10:31Z</time>
      </trkpt>
      <trkpt lat="44.626775" lon="6.719193">
        <ele>1891.8</ele>
        <time>2018-06-23T10:10:44Z</time>
      </trkpt>
      <trkpt lat="44.626742" lon="6.719310">
        <ele>1890.5</ele>
        <time>2018-06-23T10:11:19Z</time>
      </trkpt>
      <trkpt lat="44.626740" lon="6.719318">
        <ele>1890.5</ele>
        <time>2018-06-23T10:11:20Z</time>
      </trkpt>
      <trkpt lat="44.626792" lon="6.719398">
        <ele>1895.1</ele>
        <time>2018-06-23T10:11:52Z</time>
      </trkpt>
      <trkpt lat="44.626875" lon="6.719432">
        <ele>1895.1</ele>
        <time>2018-06-23T10:12:04Z</time>
      </trkpt>
      <trkpt lat="44.626930" lon="6.719343">
        <ele>1893.8</ele>
        <time>2018-06-23T10:12:22Z</time>
      </trkpt>
      <trkpt lat="44.626940" lon="6.719343">
        <ele>1893.4</ele>
        <time>2018-06-23T10:12:23Z</time>
      </trkpt>
      <trkpt lat="44.626942" lon="6.719592">
        <ele>1893.3</ele>
        <time>2018-06-23T10:13:10Z</time>
      </trkpt>
      <trkpt lat="44.626870" lon="6.719655">
        <ele>1897.1</ele>
        <time>2018-06-23T10:13:24Z</time>
      </trkpt>
      <trkpt lat="44.626867" lon="6.719663">
        <ele>1897.5</ele>
        <time>2018-06-23T10:13:25Z</time>
      </trkpt>
      <trkpt lat="44.626893" lon="6.719697">
        <ele>1908.5</ele>
        <time>2018-06-23T10:13:52Z</time>
      </trkpt>
      <trkpt lat="44.626972" lon="6.719658">
        <ele>1910.9</ele>
        <time>2018-06-23T10:14:03Z</time>
      </trkpt>
      <trkpt lat="44.627048" lon="6.719597">
        <ele>1911.0</ele>
        <time>2018-06-23T10:14:16Z</time>
      </trkpt>
      <trkpt lat="44.627110" lon="6.719512">
        <ele>1910.0</ele>
        <time>2018-06-23T10:14:32Z</time>
      </trkpt>
      <trkpt lat="44.627117" lon="6.719513">
        <ele>1909.9</ele>
        <time>2018-06-23T10:14:33Z</time>
      </trkpt>
      <trkpt lat="44.627282" lon="6.719445">
        <ele>1908.4</ele>
        <time>2018-06-23T10:14:56Z</time>
      </trkpt>
      <trkpt lat="44.627362" lon="6.719470">
        <ele>1908.0</ele>
        <time>2018-06-23T10:15:02Z</time>
      </trkpt>
      <trkpt lat="44.627440" lon="6.719420">
        <ele>1908.5</ele>
        <time>2018-06-23T10:15:13Z</time>
      </trkpt>
      <trkpt lat="44.627522" lon="6.719393">
        <ele>1911.0</ele>
        <time>2018-06-23T10:15:22Z</time>
      </trkpt>
      <trkpt lat="44.627595" lon="6.719335">
        <ele>1913.5</ele>
        <time>2018-06-23T10:15:31Z</time>
      </trkpt>
      <trkpt lat="44.627663" lon="6.719262">
        <ele>1916.5</ele>
        <time>2018-06-23T10:15:40Z</time>
      </trkpt>
      <trkpt lat="44.627668" lon="6.719252">
        <ele>1916.8</ele>
        <time>2018-06-23T10:15:41Z</time>
      </trkpt>
      <trkpt lat="44.627798" lon="6.719120">
        <ele>1920.4</ele>
        <time>2018-06-23T10:15:57Z</time>
      </trkpt>
      <trkpt lat="44.627877" lon="6.719082">
        <ele>1923.3</ele>
        <time>2018-06-23T10:16:08Z</time>
      </trkpt>
      <trkpt lat="44.627963" lon="6.719060">
        <ele>1926.3</ele>
        <time>2018-06-23T10:16:17Z</time>
      </trkpt>
      <trkpt lat="44.628022" lon="6.719000">
        <ele>1929.0</ele>
        <time>2018-06-23T10:16:27Z</time>
      </trkpt>
      <trkpt lat="44.628077" lon="6.718903">
        <ele>1930.8</ele>
        <time>2018-06-23T10:16:38Z</time>
      </trkpt>
      <trkpt lat="44.628113" lon="6.718785">
        <ele>1932.9</ele>
        <time>2018-06-23T10:16:49Z</time>
      </trkpt>
      <trkpt lat="44.628150" lon="6.718558">
        <ele>1936.3</ele>
        <time>2018-06-23T10:17:07Z</time>
      </trkpt>
      <trkpt lat="44.628185" lon="6.718312">
        <ele>1940.5</ele>
        <time>2018-06-23T10:17:34Z</time>
      </trkpt>
      <trkpt lat="44.628308" lon="6.718137">
        <ele>1944.8</ele>
        <time>2018-06-23T10:17:58Z</time>
      </trkpt>
      <trkpt lat="44.628447" lon="6.717988">
        <ele>1948.8</ele>
        <time>2018-06-23T10:18:23Z</time>
      </trkpt>
      <trkpt lat="44.628525" lon="6.717938">
        <ele>1950.4</ele>
        <time>2018-06-23T10:18:32Z</time>
      </trkpt>
      <trkpt lat="44.628610" lon="6.717898">
        <ele>1951.9</ele>
        <time>2018-06-23T10:18:40Z</time>
      </trkpt>
      <trkpt lat="44.628692" lon="6.717895">
        <ele>1952.3</ele>
        <time>2018-06-23T10:18:45Z</time>
      </trkpt>
      <trkpt lat="44.628728" lon="6.717785">
        <ele>1952.6</ele>
        <time>2018-06-23T10:18:52Z</time>
      </trkpt>
      <trkpt lat="44.628728" lon="6.717662">
        <ele>1953.5</ele>
        <time>2018-06-23T10:19:01Z</time>
      </trkpt>
      <trkpt lat="44.628817" lon="6.717465">
        <ele>1955.9</ele>
        <time>2018-06-23T10:19:18Z</time>
      </trkpt>
      <trkpt lat="44.628883" lon="6.717398">
        <ele>1956.5</ele>
        <time>2018-06-23T10:19:26Z</time>
      </trkpt>
      <trkpt lat="44.628932" lon="6.717308">
        <ele>1957.6</ele>
        <time>2018-06-23T10:19:35Z</time>
      </trkpt>
      <trkpt lat="44.629012" lon="6.717267">
        <ele>1957.5</ele>
        <time>2018-06-23T10:19:41Z</time>
      </trkpt>
      <trkpt lat="44.629080" lon="6.717192">
        <ele>1957.6</ele>
        <time>2018-06-23T10:19:52Z</time>
      </trkpt>
      <trkpt lat="44.629168" lon="6.717142">
        <ele>1958.6</ele>
        <time>2018-06-23T10:20:06Z</time>
      </trkpt>
      <trkpt lat="44.629400" lon="6.717010">
        <ele>1964.0</ele>
        <time>2018-06-23T10:20:52Z</time>
      </trkpt>
      <trkpt lat="44.629363" lon="6.716897">
        <ele>1965.8</ele>
        <time>2018-06-23T10:21:13Z</time>
      </trkpt>
      <trkpt lat="44.629367" lon="6.716890">
        <ele>1965.8</ele>
        <time>2018-06-23T10:21:14Z</time>
      </trkpt>
      <trkpt lat="44.629512" lon="6.716767">
        <ele>1964.9</ele>
        <time>2018-06-23T10:21:41Z</time>
      </trkpt>
      <trkpt lat="44.629672" lon="6.716673">
        <ele>1964.0</ele>
        <time>2018-06-23T10:22:05Z</time>
      </trkpt>
      <trkpt lat="44.629757" lon="6.716645">
        <ele>1965.0</ele>
        <time>2018-06-23T10:22:19Z</time>
      </trkpt>
      <trkpt lat="44.629760" lon="6.716640">
        <ele>1965.3</ele>
        <time>2018-06-23T10:22:20Z</time>
      </trkpt>
      <trkpt lat="44.629877" lon="6.716682">
        <ele>1968.5</ele>
        <time>2018-06-23T10:23:02Z</time>
      </trkpt>
      <trkpt lat="44.629773" lon="6.716880">
        <ele>1967.5</ele>
        <time>2018-06-23T10:23:29Z</time>
      </trkpt>
      <trkpt lat="44.629772" lon="6.716887">
        <ele>1967.5</ele>
        <time>2018-06-23T10:23:30Z</time>
      </trkpt>
      <trkpt lat="44.629953" lon="6.716890">
        <ele>1983.0</ele>
        <time>2018-06-23T10:24:42Z</time>
      </trkpt>
      <trkpt lat="44.630068" lon="6.716975">
        <ele>1990.5</ele>
        <time>2018-06-23T10:25:44Z</time>
      </trkpt>
      <trkpt lat="44.630090" lon="6.716968">
        <ele>1990.5</ele>
        <time>2018-06-23T10:25:45Z</time>
      </trkpt>
      <trkpt lat="44.630208" lon="6.716833">
        <ele>1997.6</ele>
        <time>2018-06-23T10:26:48Z</time>
      </trkpt>
      <trkpt lat="44.630212" lon="6.716823">
        <ele>1998.0</ele>
        <time>2018-06-23T10:26:49Z</time>
      </trkpt>
      <trkpt lat="44.630305" lon="6.716635">
        <ele>2001.9</ele>
        <time>2018-06-23T10:27:18Z</time>
      </trkpt>
      <trkpt lat="44.630400" lon="6.716650">
        <ele>2016.4</ele>
        <time>2018-06-23T10:28:43Z</time>
      </trkpt>
      <trkpt lat="44.630653" lon="6.716605">
        <ele>2023.5</ele>
        <time>2018-06-23T10:29:47Z</time>
      </trkpt>
      <trkpt lat="44.630775" lon="6.716675">
        <ele>2029.9</ele>
        <time>2018-06-23T10:30:44Z</time>
      </trkpt>
      <trkpt lat="44.630687" lon="6.716757">
        <ele>2031.4</ele>
        <time>2018-06-23T10:31:00Z</time>
      </trkpt>
      <trkpt lat="44.630732" lon="6.716930">
        <ele>2038.3</ele>
        <time>2018-06-23T10:31:51Z</time>
      </trkpt>
      <trkpt lat="44.630808" lon="6.716868">
        <ele>2046.8</ele>
        <time>2018-06-23T10:32:52Z</time>
      </trkpt>
      <trkpt lat="44.630808" lon="6.716863">
        <ele>2047.0</ele>
        <time>2018-06-23T10:32:53Z</time>
      </trkpt>
      <trkpt lat="44.630867" lon="6.716745">
        <ele>2055.3</ele>
        <time>2018-06-23T10:33:41Z</time>
      </trkpt>
      <trkpt lat="44.630952" lon="6.716735">
        <ele>2060.5</ele>
        <time>2018-06-23T10:34:00Z</time>
      </trkpt>
      <trkpt lat="44.630957" lon="6.716734">
        <ele>2060.6</ele>
        <time>2018-06-23T10:34:01Z</time>
      </trkpt>
      <trkpt lat="44.631127" lon="6.716718">
        <ele>2067.8</ele>
        <time>2018-06-23T10:34:41Z</time>
      </trkpt>
      <trkpt lat="44.631210" lon="6.716750">
        <ele>2071.5</ele>
        <time>2018-06-23T10:34:59Z</time>
      </trkpt>
      <trkpt lat="44.631293" lon="6.716797">
        <ele>2075.3</ele>
        <time>2018-06-23T10:35:16Z</time>
      </trkpt>
      <trkpt lat="44.631295" lon="6.716800">
        <ele>2075.6</ele>
        <time>2018-06-23T10:35:17Z</time>
      </trkpt>
      <trkpt lat="44.631410" lon="6.716968">
        <ele>2082.6</ele>
        <time>2018-06-23T10:35:58Z</time>
      </trkpt>
      <trkpt lat="44.631433" lon="6.717083">
        <ele>2085.6</ele>
        <time>2018-06-23T10:36:12Z</time>
      </trkpt>
      <trkpt lat="44.631482" lon="6.717187">
        <ele>2089.3</ele>
        <time>2018-06-23T10:36:28Z</time>
      </trkpt>
      <trkpt lat="44.631482" lon="6.717192">
        <ele>2089.6</ele>
        <time>2018-06-23T10:36:29Z</time>
      </trkpt>
      <trkpt lat="44.631580" lon="6.717368">
        <ele>2095.6</ele>
        <time>2018-06-23T10:36:56Z</time>
      </trkpt>
      <trkpt lat="44.631707" lon="6.717532">
        <ele>2101.1</ele>
        <time>2018-06-23T10:37:22Z</time>
      </trkpt>
      <trkpt lat="44.631775" lon="6.717610">
        <ele>2102.8</ele>
        <time>2018-06-23T10:37:37Z</time>
      </trkpt>
      <trkpt lat="44.631777" lon="6.717617">
        <ele>2102.8</ele>
        <time>2018-06-23T10:37:38Z</time>
      </trkpt>
      <trkpt lat="44.631962" lon="6.717838">
        <ele>2110.1</ele>
        <time>2018-06-23T10:38:12Z</time>
      </trkpt>
      <trkpt lat="44.631880" lon="6.717817">
        <ele>2113.1</ele>
        <time>2018-06-23T10:38:34Z</time>
      </trkpt>
      <trkpt lat="44.631788" lon="6.717770">
        <ele>2114.8</ele>
        <time>2018-06-23T10:38:43Z</time>
      </trkpt>
      <trkpt lat="44.631627" lon="6.717733">
        <ele>2120.8</ele>
        <time>2018-06-23T10:39:12Z</time>
      </trkpt>
      <trkpt lat="44.631472" lon="6.717640">
        <ele>2122.6</ele>
        <time>2018-06-23T10:39:35Z</time>
      </trkpt>
      <trkpt lat="44.631377" lon="6.717625">
        <ele>2124.8</ele>
        <time>2018-06-23T10:39:51Z</time>
      </trkpt>
      <trkpt lat="44.631250" lon="6.717505">
        <ele>2128.3</ele>
        <time>2018-06-23T10:40:08Z</time>
      </trkpt>
      <trkpt lat="44.631307" lon="6.717597">
        <ele>2132.6</ele>
        <time>2018-06-23T10:40:45Z</time>
      </trkpt>
      <trkpt lat="44.631370" lon="6.717678">
        <ele>2134.3</ele>
        <time>2018-06-23T10:41:00Z</time>
      </trkpt>
      <trkpt lat="44.631375" lon="6.717682">
        <ele>2134.3</ele>
        <time>2018-06-23T10:41:01Z</time>
      </trkpt>
      <trkpt lat="44.631493" lon="6.717840">
        <ele>2136.3</ele>
        <time>2018-06-23T10:41:28Z</time>
      </trkpt>
      <trkpt lat="44.631612" lon="6.718018">
        <ele>2138.0</ele>
        <time>2018-06-23T10:41:51Z</time>
      </trkpt>
      <trkpt lat="44.631665" lon="6.718118">
        <ele>2139.6</ele>
        <time>2018-06-23T10:42:08Z</time>
      </trkpt>
      <trkpt lat="44.631810" lon="6.718255">
        <ele>2141.6</ele>
        <time>2018-06-23T10:42:30Z</time>
      </trkpt>
      <trkpt lat="44.631723" lon="6.718285">
        <ele>2145.1</ele>
        <time>2018-06-23T10:43:03Z</time>
      </trkpt>
      <trkpt lat="44.631635" lon="6.718265">
        <ele>2146.3</ele>
        <time>2018-06-23T10:43:10Z</time>
      </trkpt>
      <trkpt lat="44.631468" lon="6.718213">
        <ele>2149.1</ele>
        <time>2018-06-23T10:43:27Z</time>
      </trkpt>
      <trkpt lat="44.631382" lon="6.718182">
        <ele>2151.6</ele>
        <time>2018-06-23T10:43:40Z</time>
      </trkpt>
      <trkpt lat="44.631238" lon="6.718043">
        <ele>2155.6</ele>
        <time>2018-06-23T10:44:01Z</time>
      </trkpt>
      <trkpt lat="44.631150" lon="6.718023">
        <ele>2158.6</ele>
        <time>2018-06-23T10:44:14Z</time>
      </trkpt>
      <trkpt lat="44.631147" lon="6.718023">
        <ele>2158.8</ele>
        <time>2018-06-23T10:44:15Z</time>
      </trkpt>
      <trkpt lat="44.631305" lon="6.718115">
        <ele>2162.6</ele>
        <time>2018-06-23T10:44:55Z</time>
      </trkpt>
      <trkpt lat="44.631350" lon="6.718217">
        <ele>2162.8</ele>
        <time>2018-06-23T10:45:09Z</time>
      </trkpt>
      <trkpt lat="44.631413" lon="6.718292">
        <ele>2162.6</ele>
        <time>2018-06-23T10:45:19Z</time>
      </trkpt>
      <trkpt lat="44.631423" lon="6.718295">
        <ele>2162.6</ele>
        <time>2018-06-23T10:45:20Z</time>
      </trkpt>
      <trkpt lat="44.631612" lon="6.718530">
        <ele>2163.3</ele>
        <time>2018-06-23T10:45:57Z</time>
      </trkpt>
      <trkpt lat="44.631670" lon="6.718757">
        <ele>2164.0</ele>
        <time>2018-06-23T10:46:14Z</time>
      </trkpt>
      <trkpt lat="44.631670" lon="6.718888">
        <ele>2165.0</ele>
        <time>2018-06-23T10:46:29Z</time>
      </trkpt>
      <trkpt lat="44.631730" lon="6.719105">
        <ele>2167.1</ele>
        <time>2018-06-23T10:47:00Z</time>
      </trkpt>
      <trkpt lat="44.631672" lon="6.719010">
        <ele>2172.1</ele>
        <time>2018-06-23T10:47:42Z</time>
      </trkpt>
      <trkpt lat="44.631670" lon="6.719003">
        <ele>2172.1</ele>
        <time>2018-06-23T10:47:43Z</time>
      </trkpt>
      <trkpt lat="44.631472" lon="6.718793">
        <ele>2170.1</ele>
        <time>2018-06-23T10:48:10Z</time>
      </trkpt>
      <trkpt lat="44.631402" lon="6.718732">
        <ele>2165.8</ele>
        <time>2018-06-23T10:48:31Z</time>
      </trkpt>
      <trkpt lat="44.631347" lon="6.718645">
        <ele>2163.5</ele>
        <time>2018-06-23T10:48:45Z</time>
      </trkpt>
      <trkpt lat="44.631340" lon="6.718630">
        <ele>2163.5</ele>
        <time>2018-06-23T10:48:46Z</time>
      </trkpt>
      <trkpt lat="44.631183" lon="6.718563">
        <ele>2160.8</ele>
        <time>2018-06-23T10:49:15Z</time>
      </trkpt>
      <trkpt lat="44.631233" lon="6.718663">
        <ele>2171.0</ele>
        <time>2018-06-23T10:50:21Z</time>
      </trkpt>
      <trkpt lat="44.631237" lon="6.718668">
        <ele>2171.0</ele>
        <time>2018-06-23T10:50:22Z</time>
      </trkpt>
      <trkpt lat="44.631322" lon="6.718863">
        <ele>2174.3</ele>
        <time>2018-06-23T10:50:56Z</time>
      </trkpt>
      <trkpt lat="44.631348" lon="6.718980">
        <ele>2172.1</ele>
        <time>2018-06-23T10:51:09Z</time>
      </trkpt>
      <trkpt lat="44.631383" lon="6.719093">
        <ele>2168.5</ele>
        <time>2018-06-23T10:51:21Z</time>
      </trkpt>
      <trkpt lat="44.631353" lon="6.718980">
        <ele>2167.8</ele>
        <time>2018-06-23T10:51:41Z</time>
      </trkpt>
      <trkpt lat="44.631352" lon="6.718972">
        <ele>2168.0</ele>
        <time>2018-06-23T10:51:42Z</time>
      </trkpt>
      <trkpt lat="44.631368" lon="6.719225">
        <ele>2189.8</ele>
        <time>2018-06-23T10:52:53Z</time>
      </trkpt>
      <trkpt lat="44.631285" lon="6.719320">
        <ele>2207.6</ele>
        <time>2018-06-23T10:53:51Z</time>
      </trkpt>
      <trkpt lat="44.631328" lon="6.719430">
        <ele>2208.5</ele>
        <time>2018-06-23T10:54:03Z</time>
      </trkpt>
      <trkpt lat="44.631328" lon="6.719437">
        <ele>2208.6</ele>
        <time>2018-06-23T10:54:04Z</time>
      </trkpt>
      <trkpt lat="44.631308" lon="6.719672">
        <ele>2210.0</ele>
        <time>2018-06-23T10:54:33Z</time>
      </trkpt>
      <trkpt lat="44.631320" lon="6.719795">
        <ele>2212.5</ele>
        <time>2018-06-23T10:55:39Z</time>
      </trkpt>
      <trkpt lat="44.631323" lon="6.719805">
        <ele>2212.5</ele>
        <time>2018-06-23T10:55:40Z</time>
      </trkpt>
      <trkpt lat="44.631440" lon="6.720108">
        <ele>2213.8</ele>
        <time>2018-06-23T10:56:20Z</time>
      </trkpt>
      <trkpt lat="44.631463" lon="6.720223">
        <ele>2215.3</ele>
        <time>2018-06-23T10:56:36Z</time>
      </trkpt>
      <trkpt lat="44.631507" lon="6.720327">
        <ele>2218.5</ele>
        <time>2018-06-23T10:56:53Z</time>
      </trkpt>
      <trkpt lat="44.631605" lon="6.720525">
        <ele>2224.3</ele>
        <time>2018-06-23T10:57:24Z</time>
      </trkpt>
      <trkpt lat="44.631635" lon="6.720633">
        <ele>2226.6</ele>
        <time>2018-06-23T10:57:35Z</time>
      </trkpt>
      <trkpt lat="44.631753" lon="6.720795">
        <ele>2233.5</ele>
        <time>2018-06-23T10:57:58Z</time>
      </trkpt>
      <trkpt lat="44.631892" lon="6.720937">
        <ele>2240.0</ele>
        <time>2018-06-23T10:58:32Z</time>
      </trkpt>
      <trkpt lat="44.631953" lon="6.721023">
        <ele>2241.1</ele>
        <time>2018-06-23T10:58:45Z</time>
      </trkpt>
      <trkpt lat="44.632033" lon="6.721070">
        <ele>2240.8</ele>
        <time>2018-06-23T10:58:57Z</time>
      </trkpt>
      <trkpt lat="44.632117" lon="6.721097">
        <ele>2239.3</ele>
        <time>2018-06-23T10:59:22Z</time>
      </trkpt>
      <trkpt lat="44.632125" lon="6.721102">
        <ele>2239.1</ele>
        <time>2018-06-23T10:59:23Z</time>
      </trkpt>
      <trkpt lat="44.632335" lon="6.721270">
        <ele>2237.1</ele>
        <time>2018-06-23T10:59:48Z</time>
      </trkpt>
      <trkpt lat="44.632418" lon="6.721278">
        <ele>2237.3</ele>
        <time>2018-06-23T10:59:58Z</time>
      </trkpt>
      <trkpt lat="44.632580" lon="6.721360">
        <ele>2236.6</ele>
        <time>2018-06-23T11:00:27Z</time>
      </trkpt>
      <trkpt lat="44.632585" lon="6.721368">
        <ele>2236.8</ele>
        <time>2018-06-23T11:00:28Z</time>
      </trkpt>
      <trkpt lat="44.632820" lon="6.721482">
        <ele>2236.3</ele>
        <time>2018-06-23T11:00:58Z</time>
      </trkpt>
      <trkpt lat="44.632983" lon="6.721550">
        <ele>2236.6</ele>
        <time>2018-06-23T11:01:18Z</time>
      </trkpt>
      <trkpt lat="44.633037" lon="6.721650">
        <ele>2238.8</ele>
        <time>2018-06-23T11:01:33Z</time>
      </trkpt>
      <trkpt lat="44.633038" lon="6.721657">
        <ele>2239.1</ele>
        <time>2018-06-23T11:01:34Z</time>
      </trkpt>
      <trkpt lat="44.633018" lon="6.721760">
        <ele>2248.8</ele>
        <time>2018-06-23T11:02:20Z</time>
      </trkpt>
      <trkpt lat="44.633080" lon="6.721843">
        <ele>2252.3</ele>
        <time>2018-06-23T11:02:54Z</time>
      </trkpt>
      <trkpt lat="44.633083" lon="6.721860">
        <ele>2252.1</ele>
        <time>2018-06-23T11:02:55Z</time>
      </trkpt>
      <trkpt lat="44.632992" lon="6.722002">
        <ele>2254.3</ele>
        <time>2018-06-23T11:03:42Z</time>
      </trkpt>
      <trkpt lat="44.633048" lon="6.722097">
        <ele>2255.5</ele>
        <time>2018-06-23T11:03:56Z</time>
      </trkpt>
      <trkpt lat="44.633050" lon="6.722102">
        <ele>2255.6</ele>
        <time>2018-06-23T11:03:57Z</time>
      </trkpt>
      <trkpt lat="44.633123" lon="6.722172">
        <ele>2256.5</ele>
        <time>2018-06-23T11:05:17Z</time>
      </trkpt>
      <trkpt lat="44.632977" lon="6.722235">
        <ele>2266.1</ele>
        <time>2018-06-23T11:09:18Z</time>
      </trkpt>
      <trkpt lat="44.633008" lon="6.722332">
        <ele>2265.6</ele>
        <time>2018-06-23T11:09:19Z</time>
      </trkpt>
      <trkpt lat="44.632938" lon="6.722398">
        <ele>2279.0</ele>
        <time>2018-06-23T11:10:12Z</time>
      </trkpt>
      <trkpt lat="44.633008" lon="6.722470">
        <ele>2279.6</ele>
        <time>2018-06-23T11:11:26Z</time>
      </trkpt>
      <trkpt lat="44.633013" lon="6.722477">
        <ele>2279.5</ele>
        <time>2018-06-23T11:11:27Z</time>
      </trkpt>
      <trkpt lat="44.633115" lon="6.722670">
        <ele>2280.1</ele>
        <time>2018-06-23T11:11:53Z</time>
      </trkpt>
      <trkpt lat="44.633178" lon="6.722755">
        <ele>2282.0</ele>
        <time>2018-06-23T11:12:10Z</time>
      </trkpt>
      <trkpt lat="44.633255" lon="6.722820">
        <ele>2282.8</ele>
        <time>2018-06-23T11:12:23Z</time>
      </trkpt>
      <trkpt lat="44.633342" lon="6.722875">
        <ele>2284.3</ele>
        <time>2018-06-23T11:12:39Z</time>
      </trkpt>
      <trkpt lat="44.633472" lon="6.723025">
        <ele>2288.6</ele>
        <time>2018-06-23T11:13:10Z</time>
      </trkpt>
      <trkpt lat="44.633617" lon="6.723162">
        <ele>2290.1</ele>
        <time>2018-06-23T11:13:32Z</time>
      </trkpt>
      <trkpt lat="44.633690" lon="6.723233">
        <ele>2289.8</ele>
        <time>2018-06-23T11:13:42Z</time>
      </trkpt>
      <trkpt lat="44.633698" lon="6.723237">
        <ele>2289.6</ele>
        <time>2018-06-23T11:13:43Z</time>
      </trkpt>
      <trkpt lat="44.633822" lon="6.723385">
        <ele>2288.6</ele>
        <time>2018-06-23T11:14:02Z</time>
      </trkpt>
      <trkpt lat="44.633907" lon="6.723363">
        <ele>2290.1</ele>
        <time>2018-06-23T11:14:21Z</time>
      </trkpt>
      <trkpt lat="44.633955" lon="6.723263">
        <ele>2291.1</ele>
        <time>2018-06-23T11:14:32Z</time>
      </trkpt>
      <trkpt lat="44.633980" lon="6.723143">
        <ele>2291.5</ele>
        <time>2018-06-23T11:14:41Z</time>
      </trkpt>
      <trkpt lat="44.634038" lon="6.723062">
        <ele>2293.6</ele>
        <time>2018-06-23T11:14:53Z</time>
      </trkpt>
      <trkpt lat="44.634113" lon="6.722843">
        <ele>2296.6</ele>
        <time>2018-06-23T11:15:15Z</time>
      </trkpt>
      <trkpt lat="44.634157" lon="6.722738">
        <ele>2297.1</ele>
        <time>2018-06-23T11:15:25Z</time>
      </trkpt>
      <trkpt lat="44.634158" lon="6.722495">
        <ele>2298.0</ele>
        <time>2018-06-23T11:15:47Z</time>
      </trkpt>
      <trkpt lat="44.634173" lon="6.722363">
        <ele>2299.1</ele>
        <time>2018-06-23T11:15:56Z</time>
      </trkpt>
      <trkpt lat="44.634190" lon="6.722145">
        <ele>2301.3</ele>
        <time>2018-06-23T11:16:13Z</time>
      </trkpt>
      <trkpt lat="44.634188" lon="6.722027">
        <ele>2302.3</ele>
        <time>2018-06-23T11:16:22Z</time>
      </trkpt>
      <trkpt lat="44.634212" lon="6.721805">
        <ele>2303.8</ele>
        <time>2018-06-23T11:16:54Z</time>
      </trkpt>
      <trkpt lat="44.634240" lon="6.721688">
        <ele>2303.6</ele>
        <time>2018-06-23T11:17:02Z</time>
      </trkpt>
      <trkpt lat="44.634277" lon="6.721455">
        <ele>2303.0</ele>
        <time>2018-06-23T11:17:18Z</time>
      </trkpt>
      <trkpt lat="44.634285" lon="6.721205">
        <ele>2301.8</ele>
        <time>2018-06-23T11:17:35Z</time>
      </trkpt>
      <trkpt lat="44.634315" lon="6.720975">
        <ele>2304.0</ele>
        <time>2018-06-23T11:17:51Z</time>
      </trkpt>
      <trkpt lat="44.634312" lon="6.720860">
        <ele>2303.5</ele>
        <time>2018-06-23T11:17:59Z</time>
      </trkpt>
      <trkpt lat="44.634378" lon="6.720762">
        <ele>2302.8</ele>
        <time>2018-06-23T11:18:10Z</time>
      </trkpt>
      <trkpt lat="44.634525" lon="6.720688">
        <ele>2308.6</ele>
        <time>2018-06-23T11:18:29Z</time>
      </trkpt>
      <trkpt lat="44.634608" lon="6.720665">
        <ele>2306.3</ele>
        <time>2018-06-23T11:18:37Z</time>
      </trkpt>
      <trkpt lat="44.634687" lon="6.720623">
        <ele>2300.3</ele>
        <time>2018-06-23T11:18:45Z</time>
      </trkpt>
      <trkpt lat="44.634773" lon="6.720613">
        <ele>2295.5</ele>
        <time>2018-06-23T11:18:55Z</time>
      </trkpt>
      <trkpt lat="44.634855" lon="6.720582">
        <ele>2290.5</ele>
        <time>2018-06-23T11:19:03Z</time>
      </trkpt>
      <trkpt lat="44.634943" lon="6.720563">
        <ele>2286.5</ele>
        <time>2018-06-23T11:19:11Z</time>
      </trkpt>
      <trkpt lat="44.634948" lon="6.720552">
        <ele>2286.5</ele>
        <time>2018-06-23T11:19:12Z</time>
      </trkpt>
      <trkpt lat="44.635183" lon="6.720477">
        <ele>2287.3</ele>
        <time>2018-06-23T11:19:34Z</time>
      </trkpt>
      <trkpt lat="44.635258" lon="6.720480">
        <ele>2289.8</ele>
        <time>2018-06-23T11:19:41Z</time>
      </trkpt>
      <trkpt lat="44.635430" lon="6.720437">
        <ele>2289.6</ele>
        <time>2018-06-23T11:19:57Z</time>
      </trkpt>
      <trkpt lat="44.635513" lon="6.720398">
        <ele>2292.1</ele>
        <time>2018-06-23T11:20:07Z</time>
      </trkpt>
      <trkpt lat="44.635608" lon="6.720372">
        <ele>2292.6</ele>
        <time>2018-06-23T11:20:18Z</time>
      </trkpt>
      <trkpt lat="44.635772" lon="6.720375">
        <ele>2288.1</ele>
        <time>2018-06-23T11:20:37Z</time>
      </trkpt>
      <trkpt lat="44.635945" lon="6.720352">
        <ele>2283.8</ele>
        <time>2018-06-23T11:20:59Z</time>
      </trkpt>
      <trkpt lat="44.636033" lon="6.720352">
        <ele>2282.3</ele>
        <time>2018-06-23T11:21:10Z</time>
      </trkpt>
      <trkpt lat="44.636092" lon="6.720445">
        <ele>2281.3</ele>
        <time>2018-06-23T11:21:29Z</time>
      </trkpt>
      <trkpt lat="44.636092" lon="6.720448">
        <ele>2281.3</ele>
        <time>2018-06-23T11:21:30Z</time>
      </trkpt>
      <trkpt lat="44.636265" lon="6.720452">
        <ele>2274.8</ele>
        <time>2018-06-23T11:22:37Z</time>
      </trkpt>
      <trkpt lat="44.636413" lon="6.720378">
        <ele>2273.1</ele>
        <time>2018-06-23T11:23:15Z</time>
      </trkpt>
      <trkpt lat="44.636435" lon="6.720267">
        <ele>2274.5</ele>
        <time>2018-06-23T11:23:23Z</time>
      </trkpt>
      <trkpt lat="44.636483" lon="6.720172">
        <ele>2277.3</ele>
        <time>2018-06-23T11:23:37Z</time>
      </trkpt>
      <trkpt lat="44.636505" lon="6.720052">
        <ele>2280.1</ele>
        <time>2018-06-23T11:23:52Z</time>
      </trkpt>
      <trkpt lat="44.636503" lon="6.720042">
        <ele>2280.5</ele>
        <time>2018-06-23T11:23:53Z</time>
      </trkpt>
      <trkpt lat="44.636483" lon="6.719813">
        <ele>2289.1</ele>
        <time>2018-06-23T11:24:35Z</time>
      </trkpt>
      <trkpt lat="44.636532" lon="6.719707">
        <ele>2289.8</ele>
        <time>2018-06-23T11:24:47Z</time>
      </trkpt>
      <trkpt lat="44.636545" lon="6.719595">
        <ele>2290.6</ele>
        <time>2018-06-23T11:24:56Z</time>
      </trkpt>
      <trkpt lat="44.636593" lon="6.719375">
        <ele>2286.6</ele>
        <time>2018-06-23T11:25:11Z</time>
      </trkpt>
      <trkpt lat="44.636608" lon="6.719135">
        <ele>2276.8</ele>
        <time>2018-06-23T11:25:28Z</time>
      </trkpt>
      <trkpt lat="44.636628" lon="6.719015">
        <ele>2269.6</ele>
        <time>2018-06-23T11:25:40Z</time>
      </trkpt>
      <trkpt lat="44.636638" lon="6.718892">
        <ele>2264.8</ele>
        <time>2018-06-23T11:25:51Z</time>
      </trkpt>
      <trkpt lat="44.636715" lon="6.718845">
        <ele>2266.3</ele>
        <time>2018-06-23T11:26:01Z</time>
      </trkpt>
      <trkpt lat="44.636725" lon="6.718848">
        <ele>2266.6</ele>
        <time>2018-06-23T11:26:02Z</time>
      </trkpt>
      <trkpt lat="44.636989" lon="6.718891">
        <ele>2269.0</ele>
        <time>2018-06-23T11:26:31Z</time>
      </trkpt>
      <trkpt lat="44.637073" lon="6.718858">
        <ele>2274.5</ele>
        <time>2018-06-23T11:26:51Z</time>
      </trkpt>
      <trkpt lat="44.637167" lon="6.718885">
        <ele>2275.0</ele>
        <time>2018-06-23T11:27:04Z</time>
      </trkpt>
      <trkpt lat="44.637350" lon="6.718790">
        <ele>2283.3</ele>
        <time>2018-06-23T11:27:38Z</time>
      </trkpt>
      <trkpt lat="44.637393" lon="6.718680">
        <ele>2288.1</ele>
        <time>2018-06-23T11:27:48Z</time>
      </trkpt>
      <trkpt lat="44.637452" lon="6.718450">
        <ele>2299.5</ele>
        <time>2018-06-23T11:28:20Z</time>
      </trkpt>
      <trkpt lat="44.637452" lon="6.718438">
        <ele>2299.8</ele>
        <time>2018-06-23T11:28:21Z</time>
      </trkpt>
      <trkpt lat="44.637470" lon="6.718207">
        <ele>2307.1</ele>
        <time>2018-06-23T11:29:15Z</time>
      </trkpt>
      <trkpt lat="44.637438" lon="6.718095">
        <ele>2309.6</ele>
        <time>2018-06-23T11:29:27Z</time>
      </trkpt>
      <trkpt lat="44.637435" lon="6.718088">
        <ele>2309.8</ele>
        <time>2018-06-23T11:29:28Z</time>
      </trkpt>
      <trkpt lat="44.637438" lon="6.717897">
        <ele>2311.1</ele>
        <time>2018-06-23T11:29:50Z</time>
      </trkpt>
      <trkpt lat="44.637502" lon="6.717828">
        <ele>2310.3</ele>
        <time>2018-06-23T11:30:00Z</time>
      </trkpt>
      <trkpt lat="44.637582" lon="6.717788">
        <ele>2309.3</ele>
        <time>2018-06-23T11:30:10Z</time>
      </trkpt>
      <trkpt lat="44.637620" lon="6.717677">
        <ele>2308.5</ele>
        <time>2018-06-23T11:30:22Z</time>
      </trkpt>
      <trkpt lat="44.637597" lon="6.717555">
        <ele>2312.1</ele>
        <time>2018-06-23T11:31:12Z</time>
      </trkpt>
      <trkpt lat="44.637597" lon="6.717552">
        <ele>2312.3</ele>
        <time>2018-06-23T11:31:13Z</time>
      </trkpt>
      <trkpt lat="44.637553" lon="6.717327">
        <ele>2318.3</ele>
        <time>2018-06-23T11:31:47Z</time>
      </trkpt>
      <trkpt lat="44.637540" lon="6.717208">
        <ele>2320.3</ele>
        <time>2018-06-23T11:31:59Z</time>
      </trkpt>
      <trkpt lat="44.637575" lon="6.717097">
        <ele>2321.6</ele>
        <time>2018-06-23T11:32:10Z</time>
      </trkpt>
      <trkpt lat="44.637623" lon="6.716993">
        <ele>2320.6</ele>
        <time>2018-06-23T11:32:21Z</time>
      </trkpt>
      <trkpt lat="44.637630" lon="6.716982">
        <ele>2320.5</ele>
        <time>2018-06-23T11:32:22Z</time>
      </trkpt>
      <trkpt lat="44.637598" lon="6.716758">
        <ele>2323.0</ele>
        <time>2018-06-23T11:32:58Z</time>
      </trkpt>
      <trkpt lat="44.637480" lon="6.716567">
        <ele>2329.5</ele>
        <time>2018-06-23T11:33:22Z</time>
      </trkpt>
      <trkpt lat="44.637480" lon="6.716557">
        <ele>2329.6</ele>
        <time>2018-06-23T11:33:23Z</time>
      </trkpt>
      <trkpt lat="44.637390" lon="6.716362">
        <ele>2338.6</ele>
        <time>2018-06-23T11:33:58Z</time>
      </trkpt>
      <trkpt lat="44.637422" lon="6.716120">
        <ele>2340.8</ele>
        <time>2018-06-23T11:34:18Z</time>
      </trkpt>
      <trkpt lat="44.637418" lon="6.715992">
        <ele>2342.6</ele>
        <time>2018-06-23T11:34:29Z</time>
      </trkpt>
      <trkpt lat="44.637532" lon="6.715947">
        <ele>2352.3</ele>
        <time>2018-06-23T11:35:30Z</time>
      </trkpt>
      <trkpt lat="44.637533" lon="6.715955">
        <ele>2352.5</ele>
        <time>2018-06-23T11:35:31Z</time>
      </trkpt>
      <trkpt lat="44.637600" lon="6.715957">
        <ele>2358.8</ele>
        <time>2018-06-23T11:36:00Z</time>
      </trkpt>
      <trkpt lat="44.637627" lon="6.715840">
        <ele>2360.3</ele>
        <time>2018-06-23T11:36:13Z</time>
      </trkpt>
      <trkpt lat="44.637672" lon="6.715603">
        <ele>2364.1</ele>
        <time>2018-06-23T11:36:39Z</time>
      </trkpt>
      <trkpt lat="44.637712" lon="6.715362">
        <ele>2366.6</ele>
        <time>2018-06-23T11:37:06Z</time>
      </trkpt>
      <trkpt lat="44.637700" lon="6.715237">
        <ele>2364.8</ele>
        <time>2018-06-23T11:37:17Z</time>
      </trkpt>
      <trkpt lat="44.637682" lon="6.715102">
        <ele>2365.8</ele>
        <time>2018-06-23T11:37:48Z</time>
      </trkpt>
      <trkpt lat="44.637732" lon="6.714882">
        <ele>2371.8</ele>
        <time>2018-06-23T11:38:15Z</time>
      </trkpt>
      <trkpt lat="44.637817" lon="6.714670">
        <ele>2367.1</ele>
        <time>2018-06-23T11:38:42Z</time>
      </trkpt>
      <trkpt lat="44.637853" lon="6.714555">
        <ele>2365.8</ele>
        <time>2018-06-23T11:38:55Z</time>
      </trkpt>
      <trkpt lat="44.637858" lon="6.714547">
        <ele>2365.6</ele>
        <time>2018-06-23T11:38:56Z</time>
      </trkpt>
      <trkpt lat="44.638038" lon="6.714305">
        <ele>2366.0</ele>
        <time>2018-06-23T11:39:44Z</time>
      </trkpt>
      <trkpt lat="44.638105" lon="6.714235">
        <ele>2367.1</ele>
        <time>2018-06-23T11:39:58Z</time>
      </trkpt>
      <trkpt lat="44.638255" lon="6.714107">
        <ele>2370.0</ele>
        <time>2018-06-23T11:40:29Z</time>
      </trkpt>
      <trkpt lat="44.638407" lon="6.713987">
        <ele>2373.3</ele>
        <time>2018-06-23T11:40:57Z</time>
      </trkpt>
      <trkpt lat="44.638475" lon="6.713920">
        <ele>2374.3</ele>
        <time>2018-06-23T11:41:09Z</time>
      </trkpt>
      <trkpt lat="44.638480" lon="6.713912">
        <ele>2374.5</ele>
        <time>2018-06-23T11:41:10Z</time>
      </trkpt>
      <trkpt lat="44.638620" lon="6.713610">
        <ele>2379.6</ele>
        <time>2018-06-23T11:41:49Z</time>
      </trkpt>
      <trkpt lat="44.638723" lon="6.713412">
        <ele>2384.3</ele>
        <time>2018-06-23T11:42:18Z</time>
      </trkpt>
      <trkpt lat="44.638727" lon="6.713403">
        <ele>2384.5</ele>
        <time>2018-06-23T11:42:19Z</time>
      </trkpt>
      <trkpt lat="44.638827" lon="6.713212">
        <ele>2388.5</ele>
        <time>2018-06-23T11:42:45Z</time>
      </trkpt>
      <trkpt lat="44.638885" lon="6.713127">
        <ele>2390.1</ele>
        <time>2018-06-23T11:42:58Z</time>
      </trkpt>
      <trkpt lat="44.638958" lon="6.713055">
        <ele>2391.8</ele>
        <time>2018-06-23T11:43:12Z</time>
      </trkpt>
      <trkpt lat="44.639045" lon="6.713012">
        <ele>2393.3</ele>
        <time>2018-06-23T11:43:40Z</time>
      </trkpt>
      <trkpt lat="44.639297" lon="6.712975">
        <ele>2397.1</ele>
        <time>2018-06-23T11:44:09Z</time>
      </trkpt>
      <trkpt lat="44.639380" lon="6.712945">
        <ele>2398.1</ele>
        <time>2018-06-23T11:44:19Z</time>
      </trkpt>
      <trkpt lat="44.639448" lon="6.712875">
        <ele>2399.3</ele>
        <time>2018-06-23T11:44:30Z</time>
      </trkpt>
      <trkpt lat="44.639537" lon="6.712830">
        <ele>2401.6</ele>
        <time>2018-06-23T11:44:48Z</time>
      </trkpt>
      <trkpt lat="44.639777" lon="6.712727">
        <ele>2405.1</ele>
        <time>2018-06-23T11:45:20Z</time>
      </trkpt>
      <trkpt lat="44.639943" lon="6.712657">
        <ele>2408.3</ele>
        <time>2018-06-23T11:45:43Z</time>
      </trkpt>
      <trkpt lat="44.640035" lon="6.712615">
        <ele>2409.8</ele>
        <time>2018-06-23T11:45:56Z</time>
      </trkpt>
      <trkpt lat="44.640188" lon="6.712528">
        <ele>2414.0</ele>
        <time>2018-06-23T11:46:21Z</time>
      </trkpt>
      <trkpt lat="44.640275" lon="6.712498">
        <ele>2417.0</ele>
        <time>2018-06-23T11:46:47Z</time>
      </trkpt>
      <trkpt lat="44.640363" lon="6.712498">
        <ele>2419.1</ele>
        <time>2018-06-23T11:46:59Z</time>
      </trkpt>
      <trkpt lat="44.640370" lon="6.712500">
        <ele>2419.3</ele>
        <time>2018-06-23T11:47:00Z</time>
      </trkpt>
      <trkpt lat="44.640533" lon="6.712518">
        <ele>2423.8</ele>
        <time>2018-06-23T11:47:27Z</time>
      </trkpt>
      <trkpt lat="44.640617" lon="6.712547">
        <ele>2425.6</ele>
        <time>2018-06-23T11:47:41Z</time>
      </trkpt>
      <trkpt lat="44.640767" lon="6.712673">
        <ele>2428.8</ele>
        <time>2018-06-23T11:48:09Z</time>
      </trkpt>
      <trkpt lat="44.640772" lon="6.712675">
        <ele>2429.0</ele>
        <time>2018-06-23T11:48:10Z</time>
      </trkpt>
      <trkpt lat="44.640862" lon="6.712873">
        <ele>2433.1</ele>
        <time>2018-06-23T11:48:38Z</time>
      </trkpt>
      <trkpt lat="44.640938" lon="6.713088">
        <ele>2438.0</ele>
        <time>2018-06-23T11:49:06Z</time>
      </trkpt>
      <trkpt lat="44.640965" lon="6.713207">
        <ele>2439.3</ele>
        <time>2018-06-23T11:49:20Z</time>
      </trkpt>
      <trkpt lat="44.641090" lon="6.713385">
        <ele>2445.3</ele>
        <time>2018-06-23T11:49:54Z</time>
      </trkpt>
      <trkpt lat="44.641148" lon="6.713478">
        <ele>2448.0</ele>
        <time>2018-06-23T11:50:11Z</time>
      </trkpt>
      <trkpt lat="44.641228" lon="6.713548">
        <ele>2452.0</ele>
        <time>2018-06-23T11:50:29Z</time>
      </trkpt>
      <trkpt lat="44.641377" lon="6.713655">
        <ele>2455.5</ele>
        <time>2018-06-23T11:50:59Z</time>
      </trkpt>
      <trkpt lat="44.641527" lon="6.713773">
        <ele>2457.6</ele>
        <time>2018-06-23T11:51:26Z</time>
      </trkpt>
      <trkpt lat="44.641602" lon="6.713829">
        <ele>2458.6</ele>
        <time>2018-06-23T11:51:40Z</time>
      </trkpt>
      <trkpt lat="44.641758" lon="6.713942">
        <ele>2460.1</ele>
        <time>2018-06-23T11:52:12Z</time>
      </trkpt>
      <trkpt lat="44.641663" lon="6.713935">
        <ele>2465.6</ele>
        <time>2018-06-23T11:52:57Z</time>
      </trkpt>
      <trkpt lat="44.641502" lon="6.713948">
        <ele>2469.8</ele>
        <time>2018-06-23T11:53:18Z</time>
      </trkpt>
      <trkpt lat="44.641422" lon="6.713970">
        <ele>2473.1</ele>
        <time>2018-06-23T11:53:28Z</time>
      </trkpt>
      <trkpt lat="44.641255" lon="6.714035">
        <ele>2475.6</ele>
        <time>2018-06-23T11:53:48Z</time>
      </trkpt>
      <trkpt lat="44.641178" lon="6.714087">
        <ele>2477.8</ele>
        <time>2018-06-23T11:53:59Z</time>
      </trkpt>
      <trkpt lat="44.641173" lon="6.714093">
        <ele>2478.0</ele>
        <time>2018-06-23T11:54:00Z</time>
      </trkpt>
      <trkpt lat="44.641005" lon="6.714113">
        <ele>2477.3</ele>
        <time>2018-06-23T11:54:22Z</time>
      </trkpt>
      <trkpt lat="44.640840" lon="6.714120">
        <ele>2476.6</ele>
        <time>2018-06-23T11:54:42Z</time>
      </trkpt>
      <trkpt lat="44.640668" lon="6.714147">
        <ele>2484.5</ele>
        <time>2018-06-23T11:55:03Z</time>
      </trkpt>
      <trkpt lat="44.640658" lon="6.714147">
        <ele>2484.8</ele>
        <time>2018-06-23T11:55:04Z</time>
      </trkpt>
      <trkpt lat="44.640633" lon="6.714262">
        <ele>2490.8</ele>
        <time>2018-06-23T11:55:48Z</time>
      </trkpt>
      <trkpt lat="44.640775" lon="6.714402">
        <ele>2491.6</ele>
        <time>2018-06-23T11:56:08Z</time>
      </trkpt>
      <trkpt lat="44.640783" lon="6.714403">
        <ele>2491.8</ele>
        <time>2018-06-23T11:56:09Z</time>
      </trkpt>
      <trkpt lat="44.640998" lon="6.714575">
        <ele>2495.6</ele>
        <time>2018-06-23T11:56:42Z</time>
      </trkpt>
      <trkpt lat="44.641148" lon="6.714697">
        <ele>2499.5</ele>
        <time>2018-06-23T11:57:06Z</time>
      </trkpt>
      <trkpt lat="44.641222" lon="6.714750">
        <ele>2501.8</ele>
        <time>2018-06-23T11:57:20Z</time>
      </trkpt>
      <trkpt lat="44.641377" lon="6.714865">
        <ele>2505.3</ele>
        <time>2018-06-23T11:57:50Z</time>
      </trkpt>
      <trkpt lat="44.641523" lon="6.714993">
        <ele>2510.1</ele>
        <time>2018-06-23T11:58:25Z</time>
      </trkpt>
      <trkpt lat="44.641528" lon="6.714998">
        <ele>2510.3</ele>
        <time>2018-06-23T11:58:26Z</time>
      </trkpt>
      <trkpt lat="44.641679" lon="6.715113">
        <ele>2513.3</ele>
        <time>2018-06-23T11:58:54Z</time>
      </trkpt>
      <trkpt lat="44.641828" lon="6.715222">
        <ele>2519.5</ele>
        <time>2018-06-23T11:59:40Z</time>
      </trkpt>
      <trkpt lat="44.641833" lon="6.715227">
        <ele>2519.8</ele>
        <time>2018-06-23T11:59:41Z</time>
      </trkpt>
      <trkpt lat="44.641980" lon="6.715332">
        <ele>2528.6</ele>
        <time>2018-06-23T12:00:05Z</time>
      </trkpt>
      <trkpt lat="44.642040" lon="6.715418">
        <ele>2532.1</ele>
        <time>2018-06-23T12:00:18Z</time>
      </trkpt>
      <trkpt lat="44.642170" lon="6.715577">
        <ele>2537.8</ele>
        <time>2018-06-23T12:00:43Z</time>
      </trkpt>
      <trkpt lat="44.642293" lon="6.715743">
        <ele>2542.6</ele>
        <time>2018-06-23T12:01:07Z</time>
      </trkpt>
      <trkpt lat="44.642385" lon="6.715953">
        <ele>2546.3</ele>
        <time>2018-06-23T12:01:34Z</time>
      </trkpt>
      <trkpt lat="44.642425" lon="6.716068">
        <ele>2547.8</ele>
        <time>2018-06-23T12:01:45Z</time>
      </trkpt>
      <trkpt lat="44.642478" lon="6.716283">
        <ele>2547.1</ele>
        <time>2018-06-23T12:02:20Z</time>
      </trkpt>
      <trkpt lat="44.642543" lon="6.716513">
        <ele>2550.3</ele>
        <time>2018-06-23T12:02:44Z</time>
      </trkpt>
      <trkpt lat="44.642577" lon="6.716622">
        <ele>2551.8</ele>
        <time>2018-06-23T12:02:56Z</time>
      </trkpt>
      <trkpt lat="44.642578" lon="6.716630">
        <ele>2552.1</ele>
        <time>2018-06-23T12:02:57Z</time>
      </trkpt>
      <trkpt lat="44.642408" lon="6.716560">
        <ele>2555.6</ele>
        <time>2018-06-23T12:03:39Z</time>
      </trkpt>
      <trkpt lat="44.642342" lon="6.716478">
        <ele>2558.3</ele>
        <time>2018-06-23T12:03:53Z</time>
      </trkpt>
      <trkpt lat="44.642273" lon="6.716437">
        <ele>2559.5</ele>
        <time>2018-06-23T12:04:22Z</time>
      </trkpt>
      <trkpt lat="44.642250" lon="6.716417">
        <ele>2559.8</ele>
        <time>2018-06-23T12:04:23Z</time>
      </trkpt>
      <trkpt lat="44.642117" lon="6.716330">
        <ele>2563.8</ele>
        <time>2018-06-23T12:04:47Z</time>
      </trkpt>
      <trkpt lat="44.642033" lon="6.716305">
        <ele>2566.1</ele>
        <time>2018-06-23T12:04:58Z</time>
      </trkpt>
      <trkpt lat="44.641870" lon="6.716298">
        <ele>2573.0</ele>
        <time>2018-06-23T12:05:19Z</time>
      </trkpt>
      <trkpt lat="44.641782" lon="6.716308">
        <ele>2576.1</ele>
        <time>2018-06-23T12:05:31Z</time>
      </trkpt>
      <trkpt lat="44.641612" lon="6.716350">
        <ele>2580.8</ele>
        <time>2018-06-23T12:05:54Z</time>
      </trkpt>
      <trkpt lat="44.641448" lon="6.716402">
        <ele>2582.6</ele>
        <time>2018-06-23T12:06:16Z</time>
      </trkpt>
      <trkpt lat="44.641372" lon="6.716447">
        <ele>2583.1</ele>
        <time>2018-06-23T12:06:28Z</time>
      </trkpt>
      <trkpt lat="44.641298" lon="6.716522">
        <ele>2583.8</ele>
        <time>2018-06-23T12:06:40Z</time>
      </trkpt>
      <trkpt lat="44.641277" lon="6.716647">
        <ele>2584.6</ele>
        <time>2018-06-23T12:07:43Z</time>
      </trkpt>
      <trkpt lat="44.641432" lon="6.716697">
        <ele>2589.8</ele>
        <time>2018-06-23T12:08:16Z</time>
      </trkpt>
      <trkpt lat="44.641503" lon="6.716762">
        <ele>2591.8</ele>
        <time>2018-06-23T12:08:30Z</time>
      </trkpt>
      <trkpt lat="44.641563" lon="6.716849">
        <ele>2594.6</ele>
        <time>2018-06-23T12:08:45Z</time>
      </trkpt>
      <trkpt lat="44.641697" lon="6.716993">
        <ele>2598.6</ele>
        <time>2018-06-23T12:09:11Z</time>
      </trkpt>
      <trkpt lat="44.641822" lon="6.717165">
        <ele>2602.3</ele>
        <time>2018-06-23T12:09:40Z</time>
      </trkpt>
      <trkpt lat="44.641890" lon="6.717253">
        <ele>2604.8</ele>
        <time>2018-06-23T12:09:57Z</time>
      </trkpt>
      <trkpt lat="44.641993" lon="6.717442">
        <ele>2609.3</ele>
        <time>2018-06-23T12:10:26Z</time>
      </trkpt>
      <trkpt lat="44.642037" lon="6.717548">
        <ele>2611.1</ele>
        <time>2018-06-23T12:10:40Z</time>
      </trkpt>
      <trkpt lat="44.642095" lon="6.717773">
        <ele>2614.0</ele>
        <time>2018-06-23T12:11:05Z</time>
      </trkpt>
      <trkpt lat="44.642097" lon="6.717783">
        <ele>2614.1</ele>
        <time>2018-06-23T12:11:06Z</time>
      </trkpt>
      <trkpt lat="44.642202" lon="6.718112">
        <ele>2619.8</ele>
        <time>2018-06-23T12:11:53Z</time>
      </trkpt>
      <trkpt lat="44.642237" lon="6.718220">
        <ele>2621.6</ele>
        <time>2018-06-23T12:12:14Z</time>
      </trkpt>
      <trkpt lat="44.642313" lon="6.718440">
        <ele>2626.5</ele>
        <time>2018-06-23T12:12:43Z</time>
      </trkpt>
      <trkpt lat="44.642377" lon="6.718522">
        <ele>2629.5</ele>
        <time>2018-06-23T12:12:57Z</time>
      </trkpt>
      <trkpt lat="44.642458" lon="6.718558">
        <ele>2632.1</ele>
        <time>2018-06-23T12:13:12Z</time>
      </trkpt>
      <trkpt lat="44.642537" lon="6.718610">
        <ele>2633.8</ele>
        <time>2018-06-23T12:13:25Z</time>
      </trkpt>
      <trkpt lat="44.642698" lon="6.718693">
        <ele>2637.1</ele>
        <time>2018-06-23T12:13:48Z</time>
      </trkpt>
      <trkpt lat="44.642847" lon="6.718790">
        <ele>2640.8</ele>
        <time>2018-06-23T12:14:20Z</time>
      </trkpt>
      <trkpt lat="44.642928" lon="6.718823">
        <ele>2643.0</ele>
        <time>2018-06-23T12:14:32Z</time>
      </trkpt>
      <trkpt lat="44.642935" lon="6.718830">
        <ele>2643.1</ele>
        <time>2018-06-23T12:14:33Z</time>
      </trkpt>
      <trkpt lat="44.643157" lon="6.718972">
        <ele>2647.3</ele>
        <time>2018-06-23T12:15:06Z</time>
      </trkpt>
      <trkpt lat="44.643315" lon="6.719060">
        <ele>2651.1</ele>
        <time>2018-06-23T12:15:31Z</time>
      </trkpt>
      <trkpt lat="44.643392" lon="6.719113">
        <ele>2652.6</ele>
        <time>2018-06-23T12:15:43Z</time>
      </trkpt>
      <trkpt lat="44.643400" lon="6.719117">
        <ele>2652.6</ele>
        <time>2018-06-23T12:15:44Z</time>
      </trkpt>
      <trkpt lat="44.643548" lon="6.719215">
        <ele>2655.8</ele>
        <time>2018-06-23T12:16:07Z</time>
      </trkpt>
      <trkpt lat="44.643628" lon="6.719252">
        <ele>2657.6</ele>
        <time>2018-06-23T12:16:20Z</time>
      </trkpt>
      <trkpt lat="44.643798" lon="6.719315">
        <ele>2661.8</ele>
        <time>2018-06-23T12:16:48Z</time>
      </trkpt>
      <trkpt lat="44.643800" lon="6.719318">
        <ele>2662.0</ele>
        <time>2018-06-23T12:16:49Z</time>
      </trkpt>
      <trkpt lat="44.643817" lon="6.719448">
        <ele>2666.6</ele>
        <time>2018-06-23T12:18:42Z</time>
      </trkpt>
      <trkpt lat="44.643732" lon="6.719632">
        <ele>2670.1</ele>
        <time>2018-06-23T12:19:09Z</time>
      </trkpt>
      <trkpt lat="44.643717" lon="6.719750">
        <ele>2672.3</ele>
        <time>2018-06-23T12:19:22Z</time>
      </trkpt>
      <trkpt lat="44.643643" lon="6.719818">
        <ele>2674.6</ele>
        <time>2018-06-23T12:19:37Z</time>
      </trkpt>
      <trkpt lat="44.643627" lon="6.719935">
        <ele>2676.6</ele>
        <time>2018-06-23T12:19:51Z</time>
      </trkpt>
      <trkpt lat="44.643587" lon="6.720167">
        <ele>2676.5</ele>
        <time>2018-06-23T12:20:12Z</time>
      </trkpt>
      <trkpt lat="44.643573" lon="6.720290">
        <ele>2677.8</ele>
        <time>2018-06-23T12:20:30Z</time>
      </trkpt>
      <trkpt lat="44.643578" lon="6.720408">
        <ele>2679.3</ele>
        <time>2018-06-23T12:20:57Z</time>
      </trkpt>
      <trkpt lat="44.643711" lon="6.720764">
        <ele>2679.0</ele>
        <time>2018-06-23T12:22:39Z</time>
      </trkpt>
      <trkpt lat="44.643845" lon="6.720903">
        <ele>2681.5</ele>
        <time>2018-06-23T12:23:21Z</time>
      </trkpt>
      <trkpt lat="44.643908" lon="6.720992">
        <ele>2683.3</ele>
        <time>2018-06-23T12:23:34Z</time>
      </trkpt>
      <trkpt lat="44.643987" lon="6.721038">
        <ele>2685.3</ele>
        <time>2018-06-23T12:23:52Z</time>
      </trkpt>
      <trkpt lat="44.644145" lon="6.721085">
        <ele>2689.6</ele>
        <time>2018-06-23T12:24:40Z</time>
      </trkpt>
      <trkpt lat="44.644223" lon="6.721047">
        <ele>2691.6</ele>
        <time>2018-06-23T12:24:52Z</time>
      </trkpt>
      <trkpt lat="44.644140" lon="6.721048">
        <ele>2690.6</ele>
        <time>2018-06-23T12:26:29Z</time>
      </trkpt>
      <trkpt lat="44.644130" lon="6.721047">
        <ele>2690.5</ele>
        <time>2018-06-23T12:26:30Z</time>
      </trkpt>
      <trkpt lat="44.643893" lon="6.721078">
        <ele>2692.0</ele>
        <time>2018-06-23T12:27:01Z</time>
      </trkpt>
      <trkpt lat="44.643838" lon="6.721177">
        <ele>2692.6</ele>
        <time>2018-06-23T12:27:13Z</time>
      </trkpt>
      <trkpt lat="44.643760" lon="6.721233">
        <ele>2694.5</ele>
        <time>2018-06-23T12:27:25Z</time>
      </trkpt>
      <trkpt lat="44.643685" lon="6.721168">
        <ele>2699.6</ele>
        <time>2018-06-23T12:27:49Z</time>
      </trkpt>
      <trkpt lat="44.643685" lon="6.721160">
        <ele>2699.8</ele>
        <time>2018-06-23T12:27:50Z</time>
      </trkpt>
      <trkpt lat="44.643448" lon="6.721018">
        <ele>2710.0</ele>
        <time>2018-06-23T12:28:59Z</time>
      </trkpt>
      <trkpt lat="44.643443" lon="6.721027">
        <ele>2710.1</ele>
        <time>2018-06-23T12:29:00Z</time>
      </trkpt>
      <trkpt lat="44.643292" lon="6.721122">
        <ele>2715.1</ele>
        <time>2018-06-23T12:29:38Z</time>
      </trkpt>
      <trkpt lat="44.643243" lon="6.721015">
        <ele>2719.3</ele>
        <time>2018-06-23T12:30:05Z</time>
      </trkpt>
      <trkpt lat="44.643240" lon="6.721013">
        <ele>2719.5</ele>
        <time>2018-06-23T12:30:06Z</time>
      </trkpt>
      <trkpt lat="44.643073" lon="6.721092">
        <ele>2729.6</ele>
        <time>2018-06-23T12:31:03Z</time>
      </trkpt>
      <trkpt lat="44.643002" lon="6.721030">
        <ele>2735.1</ele>
        <time>2018-06-23T12:31:50Z</time>
      </trkpt>
      <trkpt lat="44.642992" lon="6.721023">
        <ele>2735.6</ele>
        <time>2018-06-23T12:31:51Z</time>
      </trkpt>
      <trkpt lat="44.642888" lon="6.721212">
        <ele>2739.5</ele>
        <time>2018-06-23T12:32:39Z</time>
      </trkpt>
      <trkpt lat="44.642843" lon="6.721315">
        <ele>2740.1</ele>
        <time>2018-06-23T12:33:01Z</time>
      </trkpt>
      <trkpt lat="44.642840" lon="6.721328">
        <ele>2740.1</ele>
        <time>2018-06-23T12:33:02Z</time>
      </trkpt>
      <trkpt lat="44.642762" lon="6.721523">
        <ele>2737.5</ele>
        <time>2018-06-23T12:33:19Z</time>
      </trkpt>
      <trkpt lat="44.642735" lon="6.721630">
        <ele>2737.6</ele>
        <time>2018-06-23T12:33:28Z</time>
      </trkpt>
      <trkpt lat="44.642737" lon="6.721748">
        <ele>2738.8</ele>
        <time>2018-06-23T12:33:38Z</time>
      </trkpt>
      <trkpt lat="44.642728" lon="6.721872">
        <ele>2739.3</ele>
        <time>2018-06-23T12:33:51Z</time>
      </trkpt>
      <trkpt lat="44.642722" lon="6.721752">
        <ele>2739.1</ele>
        <time>2018-06-23T12:38:22Z</time>
      </trkpt>
      <trkpt lat="44.642728" lon="6.721730">
        <ele>2737.6</ele>
        <time>2018-06-23T12:38:23Z</time>
      </trkpt>
      <trkpt lat="44.642740" lon="6.721520">
        <ele>2739.1</ele>
        <time>2018-06-23T12:49:21Z</time>
      </trkpt>
      <trkpt lat="44.642805" lon="6.721303">
        <ele>2740.3</ele>
        <time>2018-06-23T12:49:37Z</time>
      </trkpt>
      <trkpt lat="44.642838" lon="6.721057">
        <ele>2741.3</ele>
        <time>2018-06-23T12:49:58Z</time>
      </trkpt>
      <trkpt lat="44.642845" lon="6.720938">
        <ele>2739.1</ele>
        <time>2018-06-23T12:50:09Z</time>
      </trkpt>
      <trkpt lat="44.642820" lon="6.720822">
        <ele>2735.6</ele>
        <time>2018-06-23T12:50:23Z</time>
      </trkpt>
      <trkpt lat="44.642817" lon="6.720815">
        <ele>2735.3</ele>
        <time>2018-06-23T12:50:24Z</time>
      </trkpt>
      <trkpt lat="44.642692" lon="6.720648">
        <ele>2729.8</ele>
        <time>2018-06-23T12:50:52Z</time>
      </trkpt>
      <trkpt lat="44.642707" lon="6.720527">
        <ele>2725.0</ele>
        <time>2018-06-23T12:51:13Z</time>
      </trkpt>
      <trkpt lat="44.642670" lon="6.720415">
        <ele>2721.6</ele>
        <time>2018-06-23T12:51:31Z</time>
      </trkpt>
      <trkpt lat="44.642665" lon="6.720408">
        <ele>2721.5</ele>
        <time>2018-06-23T12:51:32Z</time>
      </trkpt>
      <trkpt lat="44.642530" lon="6.720273">
        <ele>2714.8</ele>
        <time>2018-06-23T12:51:56Z</time>
      </trkpt>
      <trkpt lat="44.642453" lon="6.720048">
        <ele>2706.1</ele>
        <time>2018-06-23T12:52:42Z</time>
      </trkpt>
      <trkpt lat="44.642448" lon="6.720045">
        <ele>2705.5</ele>
        <time>2018-06-23T12:52:43Z</time>
      </trkpt>
      <trkpt lat="44.642355" lon="6.719875">
        <ele>2697.8</ele>
        <time>2018-06-23T12:53:24Z</time>
      </trkpt>
      <trkpt lat="44.642290" lon="6.719792">
        <ele>2693.1</ele>
        <time>2018-06-23T12:53:46Z</time>
      </trkpt>
      <trkpt lat="44.642292" lon="6.719785">
        <ele>2693.1</ele>
        <time>2018-06-23T12:53:47Z</time>
      </trkpt>
      <trkpt lat="44.642190" lon="6.719597">
        <ele>2682.8</ele>
        <time>2018-06-23T12:54:30Z</time>
      </trkpt>
      <trkpt lat="44.642240" lon="6.719492">
        <ele>2679.6</ele>
        <time>2018-06-23T12:54:43Z</time>
      </trkpt>
      <trkpt lat="44.642205" lon="6.719383">
        <ele>2675.3</ele>
        <time>2018-06-23T12:55:07Z</time>
      </trkpt>
      <trkpt lat="44.642200" lon="6.719378">
        <ele>2674.8</ele>
        <time>2018-06-23T12:55:08Z</time>
      </trkpt>
      <trkpt lat="44.642177" lon="6.719208">
        <ele>2668.6</ele>
        <time>2018-06-23T12:55:38Z</time>
      </trkpt>
      <trkpt lat="44.642102" lon="6.719167">
        <ele>2666.3</ele>
        <time>2018-06-23T12:55:46Z</time>
      </trkpt>
      <trkpt lat="44.642092" lon="6.719050">
        <ele>2663.8</ele>
        <time>2018-06-23T12:55:59Z</time>
      </trkpt>
      <trkpt lat="44.642068" lon="6.718937">
        <ele>2658.6</ele>
        <time>2018-06-23T12:56:14Z</time>
      </trkpt>
      <trkpt lat="44.642060" lon="6.718932">
        <ele>2658.3</ele>
        <time>2018-06-23T12:56:15Z</time>
      </trkpt>
      <trkpt lat="44.642057" lon="6.718707">
        <ele>2653.5</ele>
        <time>2018-06-23T12:56:39Z</time>
      </trkpt>
      <trkpt lat="44.642037" lon="6.718593">
        <ele>2649.1</ele>
        <time>2018-06-23T12:56:50Z</time>
      </trkpt>
      <trkpt lat="44.642035" lon="6.718468">
        <ele>2646.3</ele>
        <time>2018-06-23T12:57:04Z</time>
      </trkpt>
      <trkpt lat="44.642025" lon="6.718332">
        <ele>2642.3</ele>
        <time>2018-06-23T12:57:43Z</time>
      </trkpt>
      <trkpt lat="44.641950" lon="6.718002">
        <ele>2632.6</ele>
        <time>2018-06-23T12:58:13Z</time>
      </trkpt>
      <trkpt lat="44.641903" lon="6.717895">
        <ele>2629.3</ele>
        <time>2018-06-23T12:58:24Z</time>
      </trkpt>
      <trkpt lat="44.641847" lon="6.717665">
        <ele>2621.8</ele>
        <time>2018-06-23T12:58:49Z</time>
      </trkpt>
      <trkpt lat="44.641837" lon="6.717660">
        <ele>2621.6</ele>
        <time>2018-06-23T12:58:50Z</time>
      </trkpt>
      <trkpt lat="44.641758" lon="6.717320">
        <ele>2611.6</ele>
        <time>2018-06-23T12:59:25Z</time>
      </trkpt>
      <trkpt lat="44.641663" lon="6.717118">
        <ele>2605.1</ele>
        <time>2018-06-23T12:59:46Z</time>
      </trkpt>
      <trkpt lat="44.641618" lon="6.717010">
        <ele>2600.8</ele>
        <time>2018-06-23T13:00:02Z</time>
      </trkpt>
      <trkpt lat="44.641545" lon="6.716792">
        <ele>2591.3</ele>
        <time>2018-06-23T13:00:52Z</time>
      </trkpt>
      <trkpt lat="44.641490" lon="6.716695">
        <ele>2586.1</ele>
        <time>2018-06-23T13:01:12Z</time>
      </trkpt>
      <trkpt lat="44.641487" lon="6.716693">
        <ele>2586.0</ele>
        <time>2018-06-23T13:01:13Z</time>
      </trkpt>
      <trkpt lat="44.641332" lon="6.716750">
        <ele>2582.3</ele>
        <time>2018-06-23T13:01:55Z</time>
      </trkpt>
      <trkpt lat="44.641317" lon="6.716637">
        <ele>2580.0</ele>
        <time>2018-06-23T13:02:20Z</time>
      </trkpt>
      <trkpt lat="44.641318" lon="6.716622">
        <ele>2579.8</ele>
        <time>2018-06-23T13:02:21Z</time>
      </trkpt>
      <trkpt lat="44.641413" lon="6.716448">
        <ele>2576.6</ele>
        <time>2018-06-23T13:02:35Z</time>
      </trkpt>
      <trkpt lat="44.641492" lon="6.716417">
        <ele>2575.0</ele>
        <time>2018-06-23T13:02:43Z</time>
      </trkpt>
      <trkpt lat="44.641573" lon="6.716415">
        <ele>2573.8</ele>
        <time>2018-06-23T13:02:51Z</time>
      </trkpt>
      <trkpt lat="44.641652" lon="6.716392">
        <ele>2573.0</ele>
        <time>2018-06-23T13:02:58Z</time>
      </trkpt>
      <trkpt lat="44.641818" lon="6.716332">
        <ele>2571.0</ele>
        <time>2018-06-23T13:03:26Z</time>
      </trkpt>
      <trkpt lat="44.641827" lon="6.716328">
        <ele>2570.8</ele>
        <time>2018-06-23T13:03:27Z</time>
      </trkpt>
      <trkpt lat="44.641987" lon="6.716300">
        <ele>2569.6</ele>
        <time>2018-06-23T13:03:41Z</time>
      </trkpt>
      <trkpt lat="44.642067" lon="6.716315">
        <ele>2567.8</ele>
        <time>2018-06-23T13:03:48Z</time>
      </trkpt>
      <trkpt lat="44.642237" lon="6.716370">
        <ele>2561.3</ele>
        <time>2018-06-23T13:04:03Z</time>
      </trkpt>
      <trkpt lat="44.642378" lon="6.716493">
        <ele>2557.0</ele>
        <time>2018-06-23T13:04:41Z</time>
      </trkpt>
      <trkpt lat="44.642385" lon="6.716498">
        <ele>2556.8</ele>
        <time>2018-06-23T13:04:42Z</time>
      </trkpt>
      <trkpt lat="44.642605" lon="6.716685">
        <ele>2554.5</ele>
        <time>2018-06-23T13:05:08Z</time>
      </trkpt>
      <trkpt lat="44.642582" lon="6.716570">
        <ele>2554.3</ele>
        <time>2018-06-23T13:05:18Z</time>
      </trkpt>
      <trkpt lat="44.642547" lon="6.716468">
        <ele>2554.6</ele>
        <time>2018-06-23T13:05:25Z</time>
      </trkpt>
      <trkpt lat="44.642462" lon="6.716267">
        <ele>2553.6</ele>
        <time>2018-06-23T13:05:38Z</time>
      </trkpt>
      <trkpt lat="44.642440" lon="6.716138">
        <ele>2549.6</ele>
        <time>2018-06-23T13:05:55Z</time>
      </trkpt>
      <trkpt lat="44.642367" lon="6.715947">
        <ele>2545.8</ele>
        <time>2018-06-23T13:06:16Z</time>
      </trkpt>
      <trkpt lat="44.642278" lon="6.715748">
        <ele>2541.6</ele>
        <time>2018-06-23T13:06:32Z</time>
      </trkpt>
      <trkpt lat="44.642232" lon="6.715663">
        <ele>2539.6</ele>
        <time>2018-06-23T13:06:39Z</time>
      </trkpt>
      <trkpt lat="44.642097" lon="6.715508">
        <ele>2535.8</ele>
        <time>2018-06-23T13:06:54Z</time>
      </trkpt>
      <trkpt lat="44.642033" lon="6.715432">
        <ele>2533.6</ele>
        <time>2018-06-23T13:07:02Z</time>
      </trkpt>
      <trkpt lat="44.642025" lon="6.715425">
        <ele>2533.5</ele>
        <time>2018-06-23T13:07:03Z</time>
      </trkpt>
      <trkpt lat="44.641920" lon="6.715248">
        <ele>2528.5</ele>
        <time>2018-06-23T13:07:23Z</time>
      </trkpt>
      <trkpt lat="44.641768" lon="6.715132">
        <ele>2525.1</ele>
        <time>2018-06-23T13:07:41Z</time>
      </trkpt>
      <trkpt lat="44.641612" lon="6.715030">
        <ele>2521.6</ele>
        <time>2018-06-23T13:07:58Z</time>
      </trkpt>
      <trkpt lat="44.641543" lon="6.714960">
        <ele>2518.8</ele>
        <time>2018-06-23T13:08:14Z</time>
      </trkpt>
      <trkpt lat="44.641535" lon="6.714947">
        <ele>2518.6</ele>
        <time>2018-06-23T13:08:15Z</time>
      </trkpt>
      <trkpt lat="44.641332" lon="6.714758">
        <ele>2511.1</ele>
        <time>2018-06-23T13:08:43Z</time>
      </trkpt>
      <trkpt lat="44.641253" lon="6.714698">
        <ele>2508.3</ele>
        <time>2018-06-23T13:08:53Z</time>
      </trkpt>
      <trkpt lat="44.641177" lon="6.714655">
        <ele>2507.1</ele>
        <time>2018-06-23T13:09:02Z</time>
      </trkpt>
      <trkpt lat="44.641033" lon="6.714537">
        <ele>2506.3</ele>
        <time>2018-06-23T13:09:18Z</time>
      </trkpt>
      <trkpt lat="44.641022" lon="6.714532">
        <ele>2506.3</ele>
        <time>2018-06-23T13:09:19Z</time>
      </trkpt>
      <trkpt lat="44.640880" lon="6.714440">
        <ele>2507.3</ele>
        <time>2018-06-23T13:09:33Z</time>
      </trkpt>
      <trkpt lat="44.640817" lon="6.714368">
        <ele>2507.1</ele>
        <time>2018-06-23T13:09:40Z</time>
      </trkpt>
      <trkpt lat="44.640742" lon="6.714315">
        <ele>2506.0</ele>
        <time>2018-06-23T13:09:48Z</time>
      </trkpt>
      <trkpt lat="44.640658" lon="6.714277">
        <ele>2504.5</ele>
        <time>2018-06-23T13:09:57Z</time>
      </trkpt>
      <trkpt lat="44.640588" lon="6.714198">
        <ele>2503.0</ele>
        <time>2018-06-23T13:10:06Z</time>
      </trkpt>
      <trkpt lat="44.640513" lon="6.714152">
        <ele>2499.1</ele>
        <time>2018-06-23T13:10:15Z</time>
      </trkpt>
      <trkpt lat="44.640587" lon="6.714125">
        <ele>2494.3</ele>
        <time>2018-06-23T13:10:24Z</time>
      </trkpt>
      <trkpt lat="44.640738" lon="6.714127">
        <ele>2490.1</ele>
        <time>2018-06-23T13:11:36Z</time>
      </trkpt>
      <trkpt lat="44.640907" lon="6.714105">
        <ele>2488.0</ele>
        <time>2018-06-23T13:11:49Z</time>
      </trkpt>
      <trkpt lat="44.640988" lon="6.714100">
        <ele>2486.6</ele>
        <time>2018-06-23T13:11:55Z</time>
      </trkpt>
      <trkpt lat="44.641070" lon="6.714082">
        <ele>2485.1</ele>
        <time>2018-06-23T13:12:02Z</time>
      </trkpt>
      <trkpt lat="44.641157" lon="6.714108">
        <ele>2482.1</ele>
        <time>2018-06-23T13:12:09Z</time>
      </trkpt>
      <trkpt lat="44.641228" lon="6.714060">
        <ele>2480.6</ele>
        <time>2018-06-23T13:12:15Z</time>
      </trkpt>
      <trkpt lat="44.641300" lon="6.714023">
        <ele>2479.0</ele>
        <time>2018-06-23T13:12:21Z</time>
      </trkpt>
      <trkpt lat="44.641375" lon="6.713997">
        <ele>2477.8</ele>
        <time>2018-06-23T13:12:27Z</time>
      </trkpt>
      <trkpt lat="44.641540" lon="6.713950">
        <ele>2474.6</ele>
        <time>2018-06-23T13:12:40Z</time>
      </trkpt>
      <trkpt lat="44.641553" lon="6.713945">
        <ele>2474.3</ele>
        <time>2018-06-23T13:12:41Z</time>
      </trkpt>
      <trkpt lat="44.641780" lon="6.713887">
        <ele>2470.3</ele>
        <time>2018-06-23T13:12:59Z</time>
      </trkpt>
      <trkpt lat="44.641712" lon="6.713818">
        <ele>2468.3</ele>
        <time>2018-06-23T13:13:08Z</time>
      </trkpt>
      <trkpt lat="44.641635" lon="6.713768">
        <ele>2467.3</ele>
        <time>2018-06-23T13:13:13Z</time>
      </trkpt>
      <trkpt lat="44.641490" lon="6.713680">
        <ele>2465.3</ele>
        <time>2018-06-23T13:13:25Z</time>
      </trkpt>
      <trkpt lat="44.641422" lon="6.713625">
        <ele>2463.5</ele>
        <time>2018-06-23T13:13:32Z</time>
      </trkpt>
      <trkpt lat="44.641345" lon="6.713585">
        <ele>2461.8</ele>
        <time>2018-06-23T13:13:39Z</time>
      </trkpt>
      <trkpt lat="44.641260" lon="6.713525">
        <ele>2459.8</ele>
        <time>2018-06-23T13:13:46Z</time>
      </trkpt>
      <trkpt lat="44.641122" lon="6.713420">
        <ele>2453.1</ele>
        <time>2018-06-23T13:14:04Z</time>
      </trkpt>
      <trkpt lat="44.641072" lon="6.713323">
        <ele>2448.0</ele>
        <time>2018-06-23T13:14:16Z</time>
      </trkpt>
      <trkpt lat="44.640958" lon="6.713138">
        <ele>2437.1</ele>
        <time>2018-06-23T13:14:38Z</time>
      </trkpt>
      <trkpt lat="44.640935" lon="6.713028">
        <ele>2432.0</ele>
        <time>2018-06-23T13:14:49Z</time>
      </trkpt>
      <trkpt lat="44.640935" lon="6.713015">
        <ele>2431.3</ele>
        <time>2018-06-23T13:14:50Z</time>
      </trkpt>
      <trkpt lat="44.640875" lon="6.712812">
        <ele>2424.0</ele>
        <time>2018-06-23T13:15:07Z</time>
      </trkpt>
      <trkpt lat="44.640833" lon="6.712705">
        <ele>2422.0</ele>
        <time>2018-06-23T13:15:15Z</time>
      </trkpt>
      <trkpt lat="44.640787" lon="6.712613">
        <ele>2420.8</ele>
        <time>2018-06-23T13:15:22Z</time>
      </trkpt>
      <trkpt lat="44.640708" lon="6.712552">
        <ele>2420.0</ele>
        <time>2018-06-23T13:15:30Z</time>
      </trkpt>
      <trkpt lat="44.640628" lon="6.712505">
        <ele>2418.5</ele>
        <time>2018-06-23T13:15:39Z</time>
      </trkpt>
      <trkpt lat="44.640547" lon="6.712492">
        <ele>2416.8</ele>
        <time>2018-06-23T13:15:48Z</time>
      </trkpt>
      <trkpt lat="44.640462" lon="6.712493">
        <ele>2413.5</ele>
        <time>2018-06-23T13:15:57Z</time>
      </trkpt>
      <trkpt lat="44.640297" lon="6.712493">
        <ele>2408.6</ele>
        <time>2018-06-23T13:16:13Z</time>
      </trkpt>
      <trkpt lat="44.640215" lon="6.712523">
        <ele>2406.0</ele>
        <time>2018-06-23T13:16:44Z</time>
      </trkpt>
      <trkpt lat="44.640142" lon="6.712592">
        <ele>2402.8</ele>
        <time>2018-06-23T13:16:52Z</time>
      </trkpt>
      <trkpt lat="44.640050" lon="6.712643">
        <ele>2399.6</ele>
        <time>2018-06-23T13:17:01Z</time>
      </trkpt>
      <trkpt lat="44.639897" lon="6.712708">
        <ele>2394.1</ele>
        <time>2018-06-23T13:17:19Z</time>
      </trkpt>
      <trkpt lat="44.639738" lon="6.712802">
        <ele>2389.3</ele>
        <time>2018-06-23T13:18:05Z</time>
      </trkpt>
      <trkpt lat="44.639728" lon="6.712808">
        <ele>2389.1</ele>
        <time>2018-06-23T13:18:06Z</time>
      </trkpt>
      <trkpt lat="44.639588" lon="6.712872">
        <ele>2385.1</ele>
        <time>2018-06-23T13:18:20Z</time>
      </trkpt>
      <trkpt lat="44.639448" lon="6.712977">
        <ele>2381.6</ele>
        <time>2018-06-23T13:18:33Z</time>
      </trkpt>
      <trkpt lat="44.639288" lon="6.713022">
        <ele>2378.6</ele>
        <time>2018-06-23T13:18:46Z</time>
      </trkpt>
      <trkpt lat="44.639207" lon="6.713027">
        <ele>2379.0</ele>
        <time>2018-06-23T13:18:52Z</time>
      </trkpt>
      <trkpt lat="44.639042" lon="6.713045">
        <ele>2378.1</ele>
        <time>2018-06-23T13:19:05Z</time>
      </trkpt>
      <trkpt lat="44.638953" lon="6.713097">
        <ele>2378.0</ele>
        <time>2018-06-23T13:19:13Z</time>
      </trkpt>
      <trkpt lat="44.638837" lon="6.713238">
        <ele>2378.6</ele>
        <time>2018-06-23T13:19:43Z</time>
      </trkpt>
      <trkpt lat="44.638785" lon="6.713327">
        <ele>2378.0</ele>
        <time>2018-06-23T13:19:51Z</time>
      </trkpt>
      <trkpt lat="44.638745" lon="6.713433">
        <ele>2376.6</ele>
        <time>2018-06-23T13:19:59Z</time>
      </trkpt>
      <trkpt lat="44.638657" lon="6.713643">
        <ele>2373.1</ele>
        <time>2018-06-23T13:20:16Z</time>
      </trkpt>
      <trkpt lat="44.638653" lon="6.713657">
        <ele>2372.8</ele>
        <time>2018-06-23T13:20:17Z</time>
      </trkpt>
      <trkpt lat="44.638545" lon="6.713963">
        <ele>2367.0</ele>
        <time>2018-06-23T13:20:41Z</time>
      </trkpt>
      <trkpt lat="44.638485" lon="6.714035">
        <ele>2364.8</ele>
        <time>2018-06-23T13:20:47Z</time>
      </trkpt>
      <trkpt lat="44.638335" lon="6.714147">
        <ele>2360.6</ele>
        <time>2018-06-23T13:21:02Z</time>
      </trkpt>
      <trkpt lat="44.638260" lon="6.714195">
        <ele>2359.6</ele>
        <time>2018-06-23T13:21:10Z</time>
      </trkpt>
      <trkpt lat="44.638192" lon="6.714253">
        <ele>2357.5</ele>
        <time>2018-06-23T13:21:19Z</time>
      </trkpt>
      <trkpt lat="44.638045" lon="6.714388">
        <ele>2353.3</ele>
        <time>2018-06-23T13:21:38Z</time>
      </trkpt>
      <trkpt lat="44.637990" lon="6.714473">
        <ele>2351.1</ele>
        <time>2018-06-23T13:21:47Z</time>
      </trkpt>
      <trkpt lat="44.637923" lon="6.714553">
        <ele>2348.5</ele>
        <time>2018-06-23T13:21:56Z</time>
      </trkpt>
      <trkpt lat="44.637870" lon="6.714643">
        <ele>2345.6</ele>
        <time>2018-06-23T13:22:05Z</time>
      </trkpt>
      <trkpt lat="44.637797" lon="6.714858">
        <ele>2342.5</ele>
        <time>2018-06-23T13:22:22Z</time>
      </trkpt>
      <trkpt lat="44.637795" lon="6.714873">
        <ele>2342.0</ele>
        <time>2018-06-23T13:22:23Z</time>
      </trkpt>
      <trkpt lat="44.637753" lon="6.715087">
        <ele>2336.3</ele>
        <time>2018-06-23T13:22:41Z</time>
      </trkpt>
      <trkpt lat="44.637740" lon="6.715208">
        <ele>2334.1</ele>
        <time>2018-06-23T13:22:50Z</time>
      </trkpt>
      <trkpt lat="44.637773" lon="6.715438">
        <ele>2328.5</ele>
        <time>2018-06-23T13:23:05Z</time>
      </trkpt>
      <trkpt lat="44.637773" lon="6.715560">
        <ele>2325.6</ele>
        <time>2018-06-23T13:23:13Z</time>
      </trkpt>
      <trkpt lat="44.637752" lon="6.715665">
        <ele>2324.1</ele>
        <time>2018-06-23T13:23:20Z</time>
      </trkpt>
      <trkpt lat="44.637743" lon="6.715778">
        <ele>2321.6</ele>
        <time>2018-06-23T13:23:27Z</time>
      </trkpt>
      <trkpt lat="44.637698" lon="6.716010">
        <ele>2316.5</ele>
        <time>2018-06-23T13:23:43Z</time>
      </trkpt>
      <trkpt lat="44.637663" lon="6.716117">
        <ele>2313.3</ele>
        <time>2018-06-23T13:23:51Z</time>
      </trkpt>
      <trkpt lat="44.637613" lon="6.716030">
        <ele>2310.8</ele>
        <time>2018-06-23T13:24:01Z</time>
      </trkpt>
      <trkpt lat="44.637575" lon="6.715928">
        <ele>2308.1</ele>
        <time>2018-06-23T13:24:08Z</time>
      </trkpt>
      <trkpt lat="44.637498" lon="6.715990">
        <ele>2303.3</ele>
        <time>2018-06-23T13:24:27Z</time>
      </trkpt>
      <trkpt lat="44.637492" lon="6.716120">
        <ele>2301.8</ele>
        <time>2018-06-23T13:24:35Z</time>
      </trkpt>
      <trkpt lat="44.637483" lon="6.716338">
        <ele>2299.0</ele>
        <time>2018-06-23T13:24:48Z</time>
      </trkpt>
      <trkpt lat="44.637497" lon="6.716452">
        <ele>2295.8</ele>
        <time>2018-06-23T13:24:56Z</time>
      </trkpt>
      <trkpt lat="44.637528" lon="6.716550">
        <ele>2293.3</ele>
        <time>2018-06-23T13:25:02Z</time>
      </trkpt>
      <trkpt lat="44.637600" lon="6.716737">
        <ele>2286.8</ele>
        <time>2018-06-23T13:25:14Z</time>
      </trkpt>
      <trkpt lat="44.637655" lon="6.716825">
        <ele>2285.1</ele>
        <time>2018-06-23T13:25:20Z</time>
      </trkpt>
      <trkpt lat="44.637713" lon="6.716885">
        <ele>2282.1</ele>
        <time>2018-06-23T13:25:27Z</time>
      </trkpt>
      <trkpt lat="44.637755" lon="6.716988">
        <ele>2279.1</ele>
        <time>2018-06-23T13:25:34Z</time>
      </trkpt>
      <trkpt lat="44.637768" lon="6.717105">
        <ele>2277.6</ele>
        <time>2018-06-23T13:25:40Z</time>
      </trkpt>
      <trkpt lat="44.637765" lon="6.717123">
        <ele>2277.5</ele>
        <time>2018-06-23T13:25:41Z</time>
      </trkpt>
      <trkpt lat="44.637687" lon="6.717312">
        <ele>2279.1</ele>
        <time>2018-06-23T13:25:56Z</time>
      </trkpt>
      <trkpt lat="44.637658" lon="6.717427">
        <ele>2281.1</ele>
        <time>2018-06-23T13:26:04Z</time>
      </trkpt>
      <trkpt lat="44.637647" lon="6.717540">
        <ele>2281.5</ele>
        <time>2018-06-23T13:26:14Z</time>
      </trkpt>
      <trkpt lat="44.637682" lon="6.717775">
        <ele>2281.1</ele>
        <time>2018-06-23T13:26:35Z</time>
      </trkpt>
      <trkpt lat="44.637650" lon="6.717893">
        <ele>2282.3</ele>
        <time>2018-06-23T13:26:51Z</time>
      </trkpt>
      <trkpt lat="44.637495" lon="6.717965">
        <ele>2283.6</ele>
        <time>2018-06-23T13:27:06Z</time>
      </trkpt>
      <trkpt lat="44.637450" lon="6.718070">
        <ele>2284.1</ele>
        <time>2018-06-23T13:27:13Z</time>
      </trkpt>
      <trkpt lat="44.637487" lon="6.718177">
        <ele>2284.8</ele>
        <time>2018-06-23T13:27:29Z</time>
      </trkpt>
      <trkpt lat="44.637510" lon="6.718287">
        <ele>2284.3</ele>
        <time>2018-06-23T13:27:35Z</time>
      </trkpt>
      <trkpt lat="44.637502" lon="6.718523">
        <ele>2284.1</ele>
        <time>2018-06-23T13:27:56Z</time>
      </trkpt>
      <trkpt lat="44.637502" lon="6.718537">
        <ele>2283.8</ele>
        <time>2018-06-23T13:27:57Z</time>
      </trkpt>
      <trkpt lat="44.637440" lon="6.718755">
        <ele>2280.1</ele>
        <time>2018-06-23T13:28:18Z</time>
      </trkpt>
      <trkpt lat="44.637403" lon="6.718832">
        <ele>2277.8</ele>
        <time>2018-06-23T13:28:34Z</time>
      </trkpt>
      <trkpt lat="44.637318" lon="6.718823">
        <ele>2276.3</ele>
        <time>2018-06-23T13:28:40Z</time>
      </trkpt>
      <trkpt lat="44.637142" lon="6.718840">
        <ele>2273.8</ele>
        <time>2018-06-23T13:28:59Z</time>
      </trkpt>
      <trkpt lat="44.637132" lon="6.718832">
        <ele>2273.6</ele>
        <time>2018-06-23T13:29:00Z</time>
      </trkpt>
      <trkpt lat="44.636968" lon="6.718858">
        <ele>2272.3</ele>
        <time>2018-06-23T13:29:25Z</time>
      </trkpt>
      <trkpt lat="44.636882" lon="6.718888">
        <ele>2272.1</ele>
        <time>2018-06-23T13:29:38Z</time>
      </trkpt>
      <trkpt lat="44.636793" lon="6.718880">
        <ele>2275.5</ele>
        <time>2018-06-23T13:29:55Z</time>
      </trkpt>
      <trkpt lat="44.636728" lon="6.718963">
        <ele>2276.1</ele>
        <time>2018-06-23T13:30:03Z</time>
      </trkpt>
      <trkpt lat="44.636725" lon="6.718980">
        <ele>2276.1</ele>
        <time>2018-06-23T13:30:04Z</time>
      </trkpt>
      <trkpt lat="44.636708" lon="6.719185">
        <ele>2276.3</ele>
        <time>2018-06-23T13:30:15Z</time>
      </trkpt>
      <trkpt lat="44.636728" lon="6.719302">
        <ele>2276.8</ele>
        <time>2018-06-23T13:30:19Z</time>
      </trkpt>
      <trkpt lat="44.636717" lon="6.719418">
        <ele>2277.8</ele>
        <time>2018-06-23T13:30:26Z</time>
      </trkpt>
      <trkpt lat="44.636657" lon="6.719640">
        <ele>2278.3</ele>
        <time>2018-06-23T13:30:42Z</time>
      </trkpt>
      <trkpt lat="44.636648" lon="6.719747">
        <ele>2279.1</ele>
        <time>2018-06-23T13:30:50Z</time>
      </trkpt>
      <trkpt lat="44.636612" lon="6.719848">
        <ele>2279.3</ele>
        <time>2018-06-23T13:30:56Z</time>
      </trkpt>
      <trkpt lat="44.636543" lon="6.719923">
        <ele>2281.0</ele>
        <time>2018-06-23T13:31:03Z</time>
      </trkpt>
      <trkpt lat="44.636525" lon="6.720058">
        <ele>2279.3</ele>
        <time>2018-06-23T13:31:12Z</time>
      </trkpt>
      <trkpt lat="44.636520" lon="6.720293">
        <ele>2272.5</ele>
        <time>2018-06-23T13:31:35Z</time>
      </trkpt>
      <trkpt lat="44.636425" lon="6.720490">
        <ele>2268.1</ele>
        <time>2018-06-23T13:31:58Z</time>
      </trkpt>
      <trkpt lat="44.636338" lon="6.720500">
        <ele>2269.0</ele>
        <time>2018-06-23T13:32:31Z</time>
      </trkpt>
      <trkpt lat="44.636333" lon="6.720502">
        <ele>2269.1</ele>
        <time>2018-06-23T13:32:32Z</time>
      </trkpt>
      <trkpt lat="44.636182" lon="6.720432">
        <ele>2275.8</ele>
        <time>2018-06-23T13:33:26Z</time>
      </trkpt>
      <trkpt lat="44.636095" lon="6.720380">
        <ele>2274.6</ele>
        <time>2018-06-23T13:33:35Z</time>
      </trkpt>
      <trkpt lat="44.635935" lon="6.720407">
        <ele>2278.5</ele>
        <time>2018-06-23T13:33:54Z</time>
      </trkpt>
      <trkpt lat="44.635852" lon="6.720400">
        <ele>2279.3</ele>
        <time>2018-06-23T13:34:05Z</time>
      </trkpt>
      <trkpt lat="44.635690" lon="6.720448">
        <ele>2284.0</ele>
        <time>2018-06-23T13:34:31Z</time>
      </trkpt>
      <trkpt lat="44.635610" lon="6.720467">
        <ele>2287.5</ele>
        <time>2018-06-23T13:34:41Z</time>
      </trkpt>
      <trkpt lat="44.635598" lon="6.720465">
        <ele>2287.8</ele>
        <time>2018-06-23T13:34:42Z</time>
      </trkpt>
      <trkpt lat="44.635445" lon="6.720482">
        <ele>2292.1</ele>
        <time>2018-06-23T13:34:56Z</time>
      </trkpt>
      <trkpt lat="44.635363" lon="6.720447">
        <ele>2294.1</ele>
        <time>2018-06-23T13:35:04Z</time>
      </trkpt>
      <trkpt lat="44.635280" lon="6.720487">
        <ele>2296.6</ele>
        <time>2018-06-23T13:35:15Z</time>
      </trkpt>
      <trkpt lat="44.635108" lon="6.720458">
        <ele>2296.6</ele>
        <time>2018-06-23T13:35:29Z</time>
      </trkpt>
      <trkpt lat="44.635027" lon="6.720493">
        <ele>2296.8</ele>
        <time>2018-06-23T13:35:41Z</time>
      </trkpt>
      <trkpt lat="44.634945" lon="6.720495">
        <ele>2297.1</ele>
        <time>2018-06-23T13:35:48Z</time>
      </trkpt>
      <trkpt lat="44.634935" lon="6.720500">
        <ele>2297.3</ele>
        <time>2018-06-23T13:35:49Z</time>
      </trkpt>
      <trkpt lat="44.634715" lon="6.720645">
        <ele>2302.5</ele>
        <time>2018-06-23T13:36:11Z</time>
      </trkpt>
      <trkpt lat="44.634640" lon="6.720680">
        <ele>2304.3</ele>
        <time>2018-06-23T13:36:18Z</time>
      </trkpt>
      <trkpt lat="44.634482" lon="6.720727">
        <ele>2302.8</ele>
        <time>2018-06-23T13:36:31Z</time>
      </trkpt>
      <trkpt lat="44.634350" lon="6.720887">
        <ele>2300.3</ele>
        <time>2018-06-23T13:36:49Z</time>
      </trkpt>
      <trkpt lat="44.634337" lon="6.720995">
        <ele>2300.8</ele>
        <time>2018-06-23T13:36:57Z</time>
      </trkpt>
      <trkpt lat="44.634338" lon="6.721235">
        <ele>2303.5</ele>
        <time>2018-06-23T13:37:13Z</time>
      </trkpt>
      <trkpt lat="44.634293" lon="6.721458">
        <ele>2304.6</ele>
        <time>2018-06-23T13:37:41Z</time>
      </trkpt>
      <trkpt lat="44.634267" lon="6.721690">
        <ele>2304.6</ele>
        <time>2018-06-23T13:37:57Z</time>
      </trkpt>
      <trkpt lat="44.634210" lon="6.721787">
        <ele>2303.5</ele>
        <time>2018-06-23T13:38:07Z</time>
      </trkpt>
      <trkpt lat="44.634210" lon="6.721798">
        <ele>2303.5</ele>
        <time>2018-06-23T13:38:08Z</time>
      </trkpt>
      <trkpt lat="44.634425" lon="6.722079">
        <ele>2300.0</ele>
        <time>2018-06-23T13:52:26Z</time>
      </trkpt>
      <trkpt lat="44.634420" lon="6.722072">
        <ele>2300.3</ele>
        <time>2018-06-23T13:52:29Z</time>
      </trkpt>
      <trkpt lat="44.634303" lon="6.721872">
        <ele>2301.1</ele>
        <time>2018-06-23T13:53:04Z</time>
      </trkpt>
      <trkpt lat="44.634345" lon="6.721843">
        <ele>2299.1</ele>
        <time>2018-06-23T14:02:39Z</time>
      </trkpt>
      <trkpt lat="44.634405" lon="6.721950">
        <ele>2300.1</ele>
        <time>2018-06-23T14:02:40Z</time>
      </trkpt>
      <trkpt lat="44.634317" lon="6.721935">
        <ele>2299.1</ele>
        <time>2018-06-23T14:02:52Z</time>
      </trkpt>
      <trkpt lat="44.634272" lon="6.722037">
        <ele>2299.3</ele>
        <time>2018-06-23T14:03:00Z</time>
      </trkpt>
      <trkpt lat="44.634240" lon="6.722153">
        <ele>2298.6</ele>
        <time>2018-06-23T14:03:08Z</time>
      </trkpt>
      <trkpt lat="44.634222" lon="6.722388">
        <ele>2297.6</ele>
        <time>2018-06-23T14:03:22Z</time>
      </trkpt>
      <trkpt lat="44.634200" lon="6.722508">
        <ele>2296.5</ele>
        <time>2018-06-23T14:03:30Z</time>
      </trkpt>
      <trkpt lat="44.634205" lon="6.722757">
        <ele>2292.3</ele>
        <time>2018-06-23T14:03:46Z</time>
      </trkpt>
      <trkpt lat="44.634157" lon="6.722955">
        <ele>2287.0</ele>
        <time>2018-06-23T14:03:58Z</time>
      </trkpt>
      <trkpt lat="44.634100" lon="6.723042">
        <ele>2285.1</ele>
        <time>2018-06-23T14:04:04Z</time>
      </trkpt>
      <trkpt lat="44.634065" lon="6.723150">
        <ele>2284.6</ele>
        <time>2018-06-23T14:04:11Z</time>
      </trkpt>
      <trkpt lat="44.634002" lon="6.723227">
        <ele>2283.6</ele>
        <time>2018-06-23T14:04:18Z</time>
      </trkpt>
      <trkpt lat="44.633970" lon="6.723337">
        <ele>2283.1</ele>
        <time>2018-06-23T14:04:25Z</time>
      </trkpt>
      <trkpt lat="44.633900" lon="6.723412">
        <ele>2283.3</ele>
        <time>2018-06-23T14:04:38Z</time>
      </trkpt>
      <trkpt lat="44.633817" lon="6.723382">
        <ele>2284.1</ele>
        <time>2018-06-23T14:04:52Z</time>
      </trkpt>
      <trkpt lat="44.633810" lon="6.723370">
        <ele>2284.1</ele>
        <time>2018-06-23T14:04:53Z</time>
      </trkpt>
      <trkpt lat="44.633687" lon="6.723210">
        <ele>2286.3</ele>
        <time>2018-06-23T14:05:10Z</time>
      </trkpt>
      <trkpt lat="44.633615" lon="6.723135">
        <ele>2286.5</ele>
        <time>2018-06-23T14:05:18Z</time>
      </trkpt>
      <trkpt lat="44.633478" lon="6.722985">
        <ele>2284.8</ele>
        <time>2018-06-23T14:05:38Z</time>
      </trkpt>
      <trkpt lat="44.633415" lon="6.722913">
        <ele>2282.6</ele>
        <time>2018-06-23T14:05:49Z</time>
      </trkpt>
      <trkpt lat="44.633340" lon="6.722858">
        <ele>2281.3</ele>
        <time>2018-06-23T14:06:00Z</time>
      </trkpt>
      <trkpt lat="44.633332" lon="6.722855">
        <ele>2281.3</ele>
        <time>2018-06-23T14:06:01Z</time>
      </trkpt>
      <trkpt lat="44.633125" lon="6.722668">
        <ele>2276.3</ele>
        <time>2018-06-23T14:06:32Z</time>
      </trkpt>
      <trkpt lat="44.633097" lon="6.722560">
        <ele>2275.0</ele>
        <time>2018-06-23T14:06:42Z</time>
      </trkpt>
      <trkpt lat="44.633028" lon="6.722487">
        <ele>2274.8</ele>
        <time>2018-06-23T14:06:53Z</time>
      </trkpt>
      <trkpt lat="44.632967" lon="6.722400">
        <ele>2273.6</ele>
        <time>2018-06-23T14:07:27Z</time>
      </trkpt>
      <trkpt lat="44.632962" lon="6.722397">
        <ele>2273.6</ele>
        <time>2018-06-23T14:07:28Z</time>
      </trkpt>
      <trkpt lat="44.633087" lon="6.722237">
        <ele>2258.8</ele>
        <time>2018-06-23T14:08:27Z</time>
      </trkpt>
      <trkpt lat="44.633170" lon="6.722245">
        <ele>2256.8</ele>
        <time>2018-06-23T14:08:36Z</time>
      </trkpt>
      <trkpt lat="44.633177" lon="6.722247">
        <ele>2256.5</ele>
        <time>2018-06-23T14:08:37Z</time>
      </trkpt>
      <trkpt lat="44.633065" lon="6.722057">
        <ele>2253.6</ele>
        <time>2018-06-23T14:09:00Z</time>
      </trkpt>
      <trkpt lat="44.633108" lon="6.721952">
        <ele>2254.0</ele>
        <time>2018-06-23T14:09:22Z</time>
      </trkpt>
      <trkpt lat="44.633087" lon="6.721833">
        <ele>2249.1</ele>
        <time>2018-06-23T14:09:47Z</time>
      </trkpt>
      <trkpt lat="44.633082" lon="6.721825">
        <ele>2249.0</ele>
        <time>2018-06-23T14:09:48Z</time>
      </trkpt>
      <trkpt lat="44.633115" lon="6.721697">
        <ele>2240.0</ele>
        <time>2018-06-23T14:10:32Z</time>
      </trkpt>
      <trkpt lat="44.633067" lon="6.721610">
        <ele>2237.3</ele>
        <time>2018-06-23T14:10:44Z</time>
      </trkpt>
      <trkpt lat="44.632988" lon="6.721560">
        <ele>2236.3</ele>
        <time>2018-06-23T14:10:52Z</time>
      </trkpt>
      <trkpt lat="44.632977" lon="6.721560">
        <ele>2236.1</ele>
        <time>2018-06-23T14:10:53Z</time>
      </trkpt>
      <trkpt lat="44.632740" lon="6.721475">
        <ele>2232.1</ele>
        <time>2018-06-23T14:11:16Z</time>
      </trkpt>
      <trkpt lat="44.632653" lon="6.721442">
        <ele>2230.3</ele>
        <time>2018-06-23T14:11:24Z</time>
      </trkpt>
      <trkpt lat="44.632575" lon="6.721395">
        <ele>2228.6</ele>
        <time>2018-06-23T14:11:32Z</time>
      </trkpt>
      <trkpt lat="44.632495" lon="6.721367">
        <ele>2226.3</ele>
        <time>2018-06-23T14:11:41Z</time>
      </trkpt>
      <trkpt lat="44.632408" lon="6.721357">
        <ele>2224.1</ele>
        <time>2018-06-23T14:11:49Z</time>
      </trkpt>
      <trkpt lat="44.632330" lon="6.721312">
        <ele>2225.1</ele>
        <time>2018-06-23T14:12:17Z</time>
      </trkpt>
      <trkpt lat="44.632183" lon="6.721182">
        <ele>2230.3</ele>
        <time>2018-06-23T14:12:33Z</time>
      </trkpt>
      <trkpt lat="44.632100" lon="6.721145">
        <ele>2231.1</ele>
        <time>2018-06-23T14:12:42Z</time>
      </trkpt>
      <trkpt lat="44.632027" lon="6.721080">
        <ele>2230.1</ele>
        <time>2018-06-23T14:12:59Z</time>
      </trkpt>
      <trkpt lat="44.631965" lon="6.721000">
        <ele>2230.6</ele>
        <time>2018-06-23T14:13:07Z</time>
      </trkpt>
      <trkpt lat="44.631888" lon="6.720952">
        <ele>2232.8</ele>
        <time>2018-06-23T14:13:15Z</time>
      </trkpt>
      <trkpt lat="44.631823" lon="6.720852">
        <ele>2234.3</ele>
        <time>2018-06-23T14:13:24Z</time>
      </trkpt>
      <trkpt lat="44.631707" lon="6.720727">
        <ele>2233.6</ele>
        <time>2018-06-23T14:13:35Z</time>
      </trkpt>
      <trkpt lat="44.631612" lon="6.720520">
        <ele>2229.8</ele>
        <time>2018-06-23T14:13:52Z</time>
      </trkpt>
      <trkpt lat="44.631575" lon="6.720405">
        <ele>2226.6</ele>
        <time>2018-06-23T14:14:03Z</time>
      </trkpt>
      <trkpt lat="44.631563" lon="6.720280">
        <ele>2223.5</ele>
        <time>2018-06-23T14:14:11Z</time>
      </trkpt>
      <trkpt lat="44.631490" lon="6.720062">
        <ele>2217.3</ele>
        <time>2018-06-23T14:14:29Z</time>
      </trkpt>
      <trkpt lat="44.631488" lon="6.720048">
        <ele>2217.3</ele>
        <time>2018-06-23T14:14:30Z</time>
      </trkpt>
      <trkpt lat="44.631403" lon="6.719860">
        <ele>2215.6</ele>
        <time>2018-06-23T14:14:44Z</time>
      </trkpt>
      <trkpt lat="44.631373" lon="6.719748">
        <ele>2212.3</ele>
        <time>2018-06-23T14:14:55Z</time>
      </trkpt>
      <trkpt lat="44.631420" lon="6.719647">
        <ele>2209.8</ele>
        <time>2018-06-23T14:15:04Z</time>
      </trkpt>
      <trkpt lat="44.631415" lon="6.719533">
        <ele>2210.3</ele>
        <time>2018-06-23T14:15:12Z</time>
      </trkpt>
      <trkpt lat="44.631397" lon="6.719412">
        <ele>2211.1</ele>
        <time>2018-06-23T14:15:22Z</time>
      </trkpt>
      <trkpt lat="44.631350" lon="6.719315">
        <ele>2207.6</ele>
        <time>2018-06-23T14:15:32Z</time>
      </trkpt>
      <trkpt lat="44.631347" lon="6.719305">
        <ele>2207.3</ele>
        <time>2018-06-23T14:15:33Z</time>
      </trkpt>
      <trkpt lat="44.631398" lon="6.719198">
        <ele>2195.3</ele>
        <time>2018-06-23T14:16:25Z</time>
      </trkpt>
      <trkpt lat="44.631370" lon="6.719090">
        <ele>2192.6</ele>
        <time>2018-06-23T14:16:37Z</time>
      </trkpt>
      <trkpt lat="44.631370" lon="6.719078">
        <ele>2192.3</ele>
        <time>2018-06-23T14:16:38Z</time>
      </trkpt>
      <trkpt lat="44.631410" lon="6.718868">
        <ele>2189.3</ele>
        <time>2018-06-23T14:17:11Z</time>
      </trkpt>
      <trkpt lat="44.631372" lon="6.718763">
        <ele>2185.6</ele>
        <time>2018-06-23T14:17:21Z</time>
      </trkpt>
      <trkpt lat="44.631293" lon="6.718725">
        <ele>2181.8</ele>
        <time>2018-06-23T14:17:30Z</time>
      </trkpt>
      <trkpt lat="44.631222" lon="6.718653">
        <ele>2178.6</ele>
        <time>2018-06-23T14:17:38Z</time>
      </trkpt>
      <trkpt lat="44.631295" lon="6.718598">
        <ele>2167.5</ele>
        <time>2018-06-23T14:17:54Z</time>
      </trkpt>
      <trkpt lat="44.631310" lon="6.718610">
        <ele>2167.1</ele>
        <time>2018-06-23T14:17:55Z</time>
      </trkpt>
      <trkpt lat="44.631455" lon="6.718692">
        <ele>2162.6</ele>
        <time>2018-06-23T14:18:10Z</time>
      </trkpt>
      <trkpt lat="44.631515" lon="6.718763">
        <ele>2160.3</ele>
        <time>2018-06-23T14:18:17Z</time>
      </trkpt>
      <trkpt lat="44.631570" lon="6.718857">
        <ele>2157.3</ele>
        <time>2018-06-23T14:18:25Z</time>
      </trkpt>
      <trkpt lat="44.631665" lon="6.719053">
        <ele>2153.1</ele>
        <time>2018-06-23T14:18:41Z</time>
      </trkpt>
      <trkpt lat="44.631783" lon="6.719218">
        <ele>2148.8</ele>
        <time>2018-06-23T14:18:57Z</time>
      </trkpt>
      <trkpt lat="44.631788" lon="6.719228">
        <ele>2148.6</ele>
        <time>2018-06-23T14:18:58Z</time>
      </trkpt>
      <trkpt lat="44.631780" lon="6.718983">
        <ele>2147.0</ele>
        <time>2018-06-23T14:19:34Z</time>
      </trkpt>
      <trkpt lat="44.631755" lon="6.718873">
        <ele>2148.3</ele>
        <time>2018-06-23T14:19:41Z</time>
      </trkpt>
      <trkpt lat="44.631747" lon="6.718755">
        <ele>2150.6</ele>
        <time>2018-06-23T14:19:50Z</time>
      </trkpt>
      <trkpt lat="44.631690" lon="6.718663">
        <ele>2151.8</ele>
        <time>2018-06-23T14:19:59Z</time>
      </trkpt>
      <trkpt lat="44.631680" lon="6.718655">
        <ele>2152.1</ele>
        <time>2018-06-23T14:20:00Z</time>
      </trkpt>
      <trkpt lat="44.631570" lon="6.718520">
        <ele>2152.0</ele>
        <time>2018-06-23T14:20:16Z</time>
      </trkpt>
      <trkpt lat="44.631453" lon="6.718352">
        <ele>2149.6</ele>
        <time>2018-06-23T14:20:30Z</time>
      </trkpt>
      <trkpt lat="44.631395" lon="6.718278">
        <ele>2148.5</ele>
        <time>2018-06-23T14:20:38Z</time>
      </trkpt>
      <trkpt lat="44.631323" lon="6.718228">
        <ele>2147.6</ele>
        <time>2018-06-23T14:20:45Z</time>
      </trkpt>
      <trkpt lat="44.631375" lon="6.718127">
        <ele>2142.8</ele>
        <time>2018-06-23T14:21:02Z</time>
      </trkpt>
      <trkpt lat="44.631382" lon="6.718128">
        <ele>2142.5</ele>
        <time>2018-06-23T14:21:03Z</time>
      </trkpt>
      <trkpt lat="44.631613" lon="6.718225">
        <ele>2136.1</ele>
        <time>2018-06-23T14:21:28Z</time>
      </trkpt>
      <trkpt lat="44.631763" lon="6.718335">
        <ele>2131.6</ele>
        <time>2018-06-23T14:21:43Z</time>
      </trkpt>
      <trkpt lat="44.631927" lon="6.718413">
        <ele>2126.3</ele>
        <time>2018-06-23T14:21:58Z</time>
      </trkpt>
      <trkpt lat="44.631872" lon="6.718333">
        <ele>2123.5</ele>
        <time>2018-06-23T14:22:12Z</time>
      </trkpt>
      <trkpt lat="44.631858" lon="6.718327">
        <ele>2123.1</ele>
        <time>2018-06-23T14:22:13Z</time>
      </trkpt>
      <trkpt lat="44.631720" lon="6.718217">
        <ele>2120.8</ele>
        <time>2018-06-23T14:22:27Z</time>
      </trkpt>
      <trkpt lat="44.631587" lon="6.718067">
        <ele>2117.6</ele>
        <time>2018-06-23T14:22:42Z</time>
      </trkpt>
      <trkpt lat="44.631532" lon="6.717975">
        <ele>2116.6</ele>
        <time>2018-06-23T14:22:51Z</time>
      </trkpt>
      <trkpt lat="44.631488" lon="6.717872">
        <ele>2117.1</ele>
        <time>2018-06-23T14:23:01Z</time>
      </trkpt>
      <trkpt lat="44.631432" lon="6.717775">
        <ele>2117.1</ele>
        <time>2018-06-23T14:23:10Z</time>
      </trkpt>
      <trkpt lat="44.631357" lon="6.717720">
        <ele>2117.6</ele>
        <time>2018-06-23T14:23:18Z</time>
      </trkpt>
      <trkpt lat="44.631350" lon="6.717708">
        <ele>2117.6</ele>
        <time>2018-06-23T14:23:19Z</time>
      </trkpt>
      <trkpt lat="44.631467" lon="6.717653">
        <ele>2113.6</ele>
        <time>2018-06-23T14:23:34Z</time>
      </trkpt>
      <trkpt lat="44.631555" lon="6.717672">
        <ele>2111.3</ele>
        <time>2018-06-23T14:23:45Z</time>
      </trkpt>
      <trkpt lat="44.631635" lon="6.717670">
        <ele>2109.1</ele>
        <time>2018-06-23T14:23:54Z</time>
      </trkpt>
      <trkpt lat="44.631702" lon="6.717745">
        <ele>2106.1</ele>
        <time>2018-06-23T14:24:03Z</time>
      </trkpt>
      <trkpt lat="44.631863" lon="6.717817">
        <ele>2101.1</ele>
        <time>2018-06-23T14:24:18Z</time>
      </trkpt>
      <trkpt lat="44.631945" lon="6.717890">
        <ele>2098.0</ele>
        <time>2018-06-23T14:24:26Z</time>
      </trkpt>
      <trkpt lat="44.632077" lon="6.718012">
        <ele>2093.8</ele>
        <time>2018-06-23T14:24:38Z</time>
      </trkpt>
      <trkpt lat="44.632032" lon="6.717920">
        <ele>2092.3</ele>
        <time>2018-06-23T14:24:48Z</time>
      </trkpt>
      <trkpt lat="44.631953" lon="6.717870">
        <ele>2092.5</ele>
        <time>2018-06-23T14:24:54Z</time>
      </trkpt>
      <trkpt lat="44.631842" lon="6.717683">
        <ele>2093.6</ele>
        <time>2018-06-23T14:25:15Z</time>
      </trkpt>
      <trkpt lat="44.631763" lon="6.717627">
        <ele>2095.0</ele>
        <time>2018-06-23T14:25:24Z</time>
      </trkpt>
      <trkpt lat="44.631707" lon="6.717538">
        <ele>2095.6</ele>
        <time>2018-06-23T14:25:32Z</time>
      </trkpt>
      <trkpt lat="44.631698" lon="6.717533">
        <ele>2095.8</ele>
        <time>2018-06-23T14:25:33Z</time>
      </trkpt>
      <trkpt lat="44.631602" lon="6.717360">
        <ele>2099.1</ele>
        <time>2018-06-23T14:25:47Z</time>
      </trkpt>
      <trkpt lat="44.631562" lon="6.717257">
        <ele>2100.1</ele>
        <time>2018-06-23T14:25:56Z</time>
      </trkpt>
      <trkpt lat="44.631487" lon="6.717042">
        <ele>2099.5</ele>
        <time>2018-06-23T14:26:15Z</time>
      </trkpt>
      <trkpt lat="44.631420" lon="6.716963">
        <ele>2097.1</ele>
        <time>2018-06-23T14:26:27Z</time>
      </trkpt>
      <trkpt lat="44.631340" lon="6.716927">
        <ele>2095.8</ele>
        <time>2018-06-23T14:26:38Z</time>
      </trkpt>
      <trkpt lat="44.631333" lon="6.716927">
        <ele>2095.8</ele>
        <time>2018-06-23T14:26:39Z</time>
      </trkpt>
      <trkpt lat="44.631123" lon="6.716808">
        <ele>2082.1</ele>
        <time>2018-06-23T14:27:20Z</time>
      </trkpt>
      <trkpt lat="44.630950" lon="6.716825">
        <ele>2070.6</ele>
        <time>2018-06-23T14:27:41Z</time>
      </trkpt>
      <trkpt lat="44.630945" lon="6.716828">
        <ele>2070.1</ele>
        <time>2018-06-23T14:27:42Z</time>
      </trkpt>
      <trkpt lat="44.630873" lon="6.716992">
        <ele>2055.8</ele>
        <time>2018-06-23T14:28:35Z</time>
      </trkpt>
      <trkpt lat="44.630813" lon="6.717082">
        <ele>2050.1</ele>
        <time>2018-06-23T14:28:55Z</time>
      </trkpt>
      <trkpt lat="44.630810" lon="6.717092">
        <ele>2049.6</ele>
        <time>2018-06-23T14:28:56Z</time>
      </trkpt>
      <trkpt lat="44.630735" lon="6.716962">
        <ele>2041.3</ele>
        <time>2018-06-23T14:29:52Z</time>
      </trkpt>
      <trkpt lat="44.630737" lon="6.716838">
        <ele>2034.5</ele>
        <time>2018-06-23T14:29:55Z</time>
      </trkpt>
      <trkpt lat="44.630813" lon="6.716787">
        <ele>2034.0</ele>
        <time>2018-06-23T14:30:08Z</time>
      </trkpt>
      <trkpt lat="44.630820" lon="6.716767">
        <ele>2033.5</ele>
        <time>2018-06-23T14:30:09Z</time>
      </trkpt>
      <trkpt lat="44.630702" lon="6.716688">
        <ele>2022.4</ele>
        <time>2018-06-23T14:31:06Z</time>
      </trkpt>
      <trkpt lat="44.630613" lon="6.716707">
        <ele>2019.3</ele>
        <time>2018-06-23T14:31:20Z</time>
      </trkpt>
      <trkpt lat="44.630605" lon="6.716707">
        <ele>2018.6</ele>
        <time>2018-06-23T14:31:21Z</time>
      </trkpt>
      <trkpt lat="44.630465" lon="6.716808">
        <ele>2008.9</ele>
        <time>2018-06-23T14:31:57Z</time>
      </trkpt>
      <trkpt lat="44.630433" lon="6.716697">
        <ele>2002.3</ele>
        <time>2018-06-23T14:33:09Z</time>
      </trkpt>
      <trkpt lat="44.630433" lon="6.716690">
        <ele>2002.0</ele>
        <time>2018-06-23T14:33:10Z</time>
      </trkpt>
      <trkpt lat="44.630293" lon="6.716840">
        <ele>1992.6</ele>
        <time>2018-06-23T14:33:35Z</time>
      </trkpt>
      <trkpt lat="44.630257" lon="6.716947">
        <ele>1988.3</ele>
        <time>2018-06-23T14:33:43Z</time>
      </trkpt>
      <trkpt lat="44.630175" lon="6.716995">
        <ele>1984.3</ele>
        <time>2018-06-23T14:33:58Z</time>
      </trkpt>
      <trkpt lat="44.630097" lon="6.717055">
        <ele>1982.0</ele>
        <time>2018-06-23T14:34:09Z</time>
      </trkpt>
      <trkpt lat="44.630028" lon="6.716980">
        <ele>1975.9</ele>
        <time>2018-06-23T14:34:39Z</time>
      </trkpt>
      <trkpt lat="44.630027" lon="6.716975">
        <ele>1975.8</ele>
        <time>2018-06-23T14:34:40Z</time>
      </trkpt>
      <trkpt lat="44.629867" lon="6.716988">
        <ele>1973.1</ele>
        <time>2018-06-23T14:35:09Z</time>
      </trkpt>
      <trkpt lat="44.629788" lon="6.717022">
        <ele>1972.8</ele>
        <time>2018-06-23T14:35:27Z</time>
      </trkpt>
      <trkpt lat="44.629802" lon="6.716898">
        <ele>1969.5</ele>
        <time>2018-06-23T14:35:41Z</time>
      </trkpt>
      <trkpt lat="44.629810" lon="6.716888">
        <ele>1969.3</ele>
        <time>2018-06-23T14:35:42Z</time>
      </trkpt>
      <trkpt lat="44.629940" lon="6.716762">
        <ele>1968.1</ele>
        <time>2018-06-23T14:36:01Z</time>
      </trkpt>
      <trkpt lat="44.629863" lon="6.716707">
        <ele>1967.9</ele>
        <time>2018-06-23T14:36:20Z</time>
      </trkpt>
      <trkpt lat="44.629788" lon="6.716762">
        <ele>1966.8</ele>
        <time>2018-06-23T14:36:30Z</time>
      </trkpt>
      <trkpt lat="44.629633" lon="6.716840">
        <ele>1962.0</ele>
        <time>2018-06-23T14:36:47Z</time>
      </trkpt>
      <trkpt lat="44.629498" lon="6.716978">
        <ele>1956.9</ele>
        <time>2018-06-23T14:37:03Z</time>
      </trkpt>
      <trkpt lat="44.629400" lon="6.717178">
        <ele>1948.5</ele>
        <time>2018-06-23T14:37:23Z</time>
      </trkpt>
      <trkpt lat="44.629338" lon="6.717258">
        <ele>1945.5</ele>
        <time>2018-06-23T14:37:34Z</time>
      </trkpt>
      <trkpt lat="44.629253" lon="6.717275">
        <ele>1942.3</ele>
        <time>2018-06-23T14:37:48Z</time>
      </trkpt>
      <trkpt lat="44.629242" lon="6.717272">
        <ele>1942.1</ele>
        <time>2018-06-23T14:37:49Z</time>
      </trkpt>
      <trkpt lat="44.629007" lon="6.717308">
        <ele>1938.5</ele>
        <time>2018-06-23T14:38:11Z</time>
      </trkpt>
      <trkpt lat="44.628930" lon="6.717357">
        <ele>1937.6</ele>
        <time>2018-06-23T14:38:18Z</time>
      </trkpt>
      <trkpt lat="44.628858" lon="6.717417">
        <ele>1937.3</ele>
        <time>2018-06-23T14:38:27Z</time>
      </trkpt>
      <trkpt lat="44.628822" lon="6.717513">
        <ele>1937.6</ele>
        <time>2018-06-23T14:38:33Z</time>
      </trkpt>
      <trkpt lat="44.628793" lon="6.717615">
        <ele>1937.3</ele>
        <time>2018-06-23T14:38:40Z</time>
      </trkpt>
      <trkpt lat="44.628742" lon="6.717717">
        <ele>1936.5</ele>
        <time>2018-06-23T14:38:49Z</time>
      </trkpt>
      <trkpt lat="44.628732" lon="6.717723">
        <ele>1936.3</ele>
        <time>2018-06-23T14:38:50Z</time>
      </trkpt>
      <trkpt lat="44.628657" lon="6.718030">
        <ele>1936.0</ele>
        <time>2018-06-23T14:39:10Z</time>
      </trkpt>
      <trkpt lat="44.628588" lon="6.718093">
        <ele>1936.4</ele>
        <time>2018-06-23T14:39:17Z</time>
      </trkpt>
      <trkpt lat="44.628535" lon="6.718185">
        <ele>1936.1</ele>
        <time>2018-06-23T14:39:25Z</time>
      </trkpt>
      <trkpt lat="44.628450" lon="6.718225">
        <ele>1936.6</ele>
        <time>2018-06-23T14:39:33Z</time>
      </trkpt>
      <trkpt lat="44.628383" lon="6.718282">
        <ele>1937.0</ele>
        <time>2018-06-23T14:39:42Z</time>
      </trkpt>
      <trkpt lat="44.628305" lon="6.718322">
        <ele>1937.0</ele>
        <time>2018-06-23T14:39:49Z</time>
      </trkpt>
      <trkpt lat="44.628233" lon="6.718380">
        <ele>1937.0</ele>
        <time>2018-06-23T14:39:57Z</time>
      </trkpt>
      <trkpt lat="44.628162" lon="6.718593">
        <ele>1934.9</ele>
        <time>2018-06-23T14:40:12Z</time>
      </trkpt>
      <trkpt lat="44.628137" lon="6.718700">
        <ele>1933.6</ele>
        <time>2018-06-23T14:40:18Z</time>
      </trkpt>
      <trkpt lat="44.628102" lon="6.718798">
        <ele>1931.5</ele>
        <time>2018-06-23T14:40:25Z</time>
      </trkpt>
      <trkpt lat="44.628097" lon="6.718917">
        <ele>1931.5</ele>
        <time>2018-06-23T14:40:32Z</time>
      </trkpt>
      <trkpt lat="44.628065" lon="6.719035">
        <ele>1931.5</ele>
        <time>2018-06-23T14:40:41Z</time>
      </trkpt>
      <trkpt lat="44.628008" lon="6.719128">
        <ele>1929.1</ele>
        <time>2018-06-23T14:40:53Z</time>
      </trkpt>
      <trkpt lat="44.627930" lon="6.719130">
        <ele>1928.5</ele>
        <time>2018-06-23T14:41:01Z</time>
      </trkpt>
      <trkpt lat="44.627917" lon="6.719138">
        <ele>1928.4</ele>
        <time>2018-06-23T14:41:02Z</time>
      </trkpt>
      <trkpt lat="44.627760" lon="6.719183">
        <ele>1925.5</ele>
        <time>2018-06-23T14:41:21Z</time>
      </trkpt>
      <trkpt lat="44.627618" lon="6.719322">
        <ele>1922.0</ele>
        <time>2018-06-23T14:41:36Z</time>
      </trkpt>
      <trkpt lat="44.627543" lon="6.719357">
        <ele>1918.9</ele>
        <time>2018-06-23T14:41:43Z</time>
      </trkpt>
      <trkpt lat="44.627465" lon="6.719350">
        <ele>1917.9</ele>
        <time>2018-06-23T14:41:50Z</time>
      </trkpt>
      <trkpt lat="44.627392" lon="6.719412">
        <ele>1916.8</ele>
        <time>2018-06-23T14:41:57Z</time>
      </trkpt>
      <trkpt lat="44.627303" lon="6.719427">
        <ele>1916.8</ele>
        <time>2018-06-23T14:42:06Z</time>
      </trkpt>
      <trkpt lat="44.627302" lon="6.719442">
        <ele>1916.9</ele>
        <time>2018-06-23T14:42:07Z</time>
      </trkpt>
      <trkpt lat="44.627113" lon="6.719663">
        <ele>1914.5</ele>
        <time>2018-06-23T14:42:29Z</time>
      </trkpt>
      <trkpt lat="44.627047" lon="6.719730">
        <ele>1913.1</ele>
        <time>2018-06-23T14:42:36Z</time>
      </trkpt>
      <trkpt lat="44.626962" lon="6.719725">
        <ele>1913.5</ele>
        <time>2018-06-23T14:42:43Z</time>
      </trkpt>
      <trkpt lat="44.626883" lon="6.719758">
        <ele>1912.4</ele>
        <time>2018-06-23T14:42:51Z</time>
      </trkpt>
      <trkpt lat="44.626905" lon="6.719645">
        <ele>1910.6</ele>
        <time>2018-06-23T14:43:08Z</time>
      </trkpt>
      <trkpt lat="44.626913" lon="6.719635">
        <ele>1910.8</ele>
        <time>2018-06-23T14:43:09Z</time>
      </trkpt>
      <trkpt lat="44.627042" lon="6.719363">
        <ele>1909.3</ele>
        <time>2018-06-23T14:43:34Z</time>
      </trkpt>
      <trkpt lat="44.626957" lon="6.719385">
        <ele>1907.4</ele>
        <time>2018-06-23T14:43:48Z</time>
      </trkpt>
      <trkpt lat="44.626893" lon="6.719465">
        <ele>1906.1</ele>
        <time>2018-06-23T14:43:56Z</time>
      </trkpt>
      <trkpt lat="44.626720" lon="6.719480">
        <ele>1904.8</ele>
        <time>2018-06-23T14:44:13Z</time>
      </trkpt>
      <trkpt lat="44.626712" lon="6.719485">
        <ele>1904.4</ele>
        <time>2018-06-23T14:44:14Z</time>
      </trkpt>
      <trkpt lat="44.626810" lon="6.719293">
        <ele>1897.9</ele>
        <time>2018-06-23T14:44:41Z</time>
      </trkpt>
      <trkpt lat="44.626645" lon="6.719307">
        <ele>1894.4</ele>
        <time>2018-06-23T14:45:05Z</time>
      </trkpt>
      <trkpt lat="44.626573" lon="6.719360">
        <ele>1891.6</ele>
        <time>2018-06-23T14:45:12Z</time>
      </trkpt>
      <trkpt lat="44.626552" lon="6.719477">
        <ele>1888.0</ele>
        <time>2018-06-23T14:45:20Z</time>
      </trkpt>
      <trkpt lat="44.626552" lon="6.719492">
        <ele>1888.0</ele>
        <time>2018-06-23T14:45:21Z</time>
      </trkpt>
      <trkpt lat="44.626507" lon="6.719712">
        <ele>1881.4</ele>
        <time>2018-06-23T14:45:39Z</time>
      </trkpt>
      <trkpt lat="44.626447" lon="6.719802">
        <ele>1879.9</ele>
        <time>2018-06-23T14:46:07Z</time>
      </trkpt>
      <trkpt lat="44.626395" lon="6.719922">
        <ele>1876.1</ele>
        <time>2018-06-23T14:46:27Z</time>
      </trkpt>
      <trkpt lat="44.626182" lon="6.720075">
        <ele>1871.5</ele>
        <time>2018-06-23T14:46:50Z</time>
      </trkpt>
      <trkpt lat="44.626095" lon="6.720107">
        <ele>1869.5</ele>
        <time>2018-06-23T14:46:58Z</time>
      </trkpt>
      <trkpt lat="44.625943" lon="6.720207">
        <ele>1864.9</ele>
        <time>2018-06-23T14:47:13Z</time>
      </trkpt>
      <trkpt lat="44.625863" lon="6.720205">
        <ele>1864.1</ele>
        <time>2018-06-23T14:47:19Z</time>
      </trkpt>
      <trkpt lat="44.625778" lon="6.720228">
        <ele>1863.5</ele>
        <time>2018-06-23T14:47:26Z</time>
      </trkpt>
      <trkpt lat="44.625700" lon="6.720272">
        <ele>1861.8</ele>
        <time>2018-06-23T14:47:34Z</time>
      </trkpt>
      <trkpt lat="44.625692" lon="6.720282">
        <ele>1861.5</ele>
        <time>2018-06-23T14:47:35Z</time>
      </trkpt>
      <trkpt lat="44.625558" lon="6.720360">
        <ele>1861.0</ele>
        <time>2018-06-23T14:47:51Z</time>
      </trkpt>
      <trkpt lat="44.625480" lon="6.720318">
        <ele>1862.8</ele>
        <time>2018-06-23T14:47:59Z</time>
      </trkpt>
      <trkpt lat="44.625398" lon="6.720298">
        <ele>1864.3</ele>
        <time>2018-06-23T14:48:08Z</time>
      </trkpt>
      <trkpt lat="44.625365" lon="6.720408">
        <ele>1864.5</ele>
        <time>2018-06-23T14:48:15Z</time>
      </trkpt>
      <trkpt lat="44.625325" lon="6.720630">
        <ele>1862.0</ele>
        <time>2018-06-23T14:48:31Z</time>
      </trkpt>
      <trkpt lat="44.625288" lon="6.720743">
        <ele>1860.3</ele>
        <time>2018-06-23T14:48:40Z</time>
      </trkpt>
      <trkpt lat="44.625288" lon="6.720758">
        <ele>1860.4</ele>
        <time>2018-06-23T14:48:41Z</time>
      </trkpt>
      <trkpt lat="44.625223" lon="6.721098">
        <ele>1863.3</ele>
        <time>2018-06-23T14:49:05Z</time>
      </trkpt>
      <trkpt lat="44.625150" lon="6.721028">
        <ele>1864.5</ele>
        <time>2018-06-23T14:49:15Z</time>
      </trkpt>
      <trkpt lat="44.625105" lon="6.720927">
        <ele>1863.8</ele>
        <time>2018-06-23T14:49:23Z</time>
      </trkpt>
      <trkpt lat="44.625042" lon="6.720838">
        <ele>1862.4</ele>
        <time>2018-06-23T14:49:32Z</time>
      </trkpt>
      <trkpt lat="44.624967" lon="6.720788">
        <ele>1858.5</ele>
        <time>2018-06-23T14:49:46Z</time>
      </trkpt>
      <trkpt lat="44.624957" lon="6.720793">
        <ele>1858.1</ele>
        <time>2018-06-23T14:49:47Z</time>
      </trkpt>
      <trkpt lat="44.624855" lon="6.720652">
        <ele>1853.4</ele>
        <time>2018-06-23T14:50:14Z</time>
      </trkpt>
      <trkpt lat="44.624797" lon="6.720717">
        <ele>1852.0</ele>
        <time>2018-06-23T14:50:21Z</time>
      </trkpt>
      <trkpt lat="44.624715" lon="6.720740">
        <ele>1849.3</ele>
        <time>2018-06-23T14:50:28Z</time>
      </trkpt>
      <trkpt lat="44.624558" lon="6.720807">
        <ele>1842.3</ele>
        <time>2018-06-23T14:50:42Z</time>
      </trkpt>
      <trkpt lat="44.624482" lon="6.720847">
        <ele>1840.3</ele>
        <time>2018-06-23T14:50:49Z</time>
      </trkpt>
      <trkpt lat="44.624472" lon="6.720847">
        <ele>1839.9</ele>
        <time>2018-06-23T14:50:50Z</time>
      </trkpt>
      <trkpt lat="44.624350" lon="6.720968">
        <ele>1835.3</ele>
        <time>2018-06-23T14:51:05Z</time>
      </trkpt>
      <trkpt lat="44.624328" lon="6.721073">
        <ele>1833.0</ele>
        <time>2018-06-23T14:51:12Z</time>
      </trkpt>
      <trkpt lat="44.624210" lon="6.721253">
        <ele>1827.4</ele>
        <time>2018-06-23T14:51:29Z</time>
      </trkpt>
      <trkpt lat="44.624138" lon="6.721310">
        <ele>1824.1</ele>
        <time>2018-06-23T14:51:36Z</time>
      </trkpt>
      <trkpt lat="44.624007" lon="6.721445">
        <ele>1823.9</ele>
        <time>2018-06-23T14:51:50Z</time>
      </trkpt>
      <trkpt lat="44.623997" lon="6.721445">
        <ele>1823.8</ele>
        <time>2018-06-23T14:51:51Z</time>
      </trkpt>
      <trkpt lat="44.623758" lon="6.721555">
        <ele>1822.3</ele>
        <time>2018-06-23T14:52:15Z</time>
      </trkpt>
      <trkpt lat="44.623692" lon="6.721633">
        <ele>1820.0</ele>
        <time>2018-06-23T14:52:25Z</time>
      </trkpt>
      <trkpt lat="44.623633" lon="6.721725">
        <ele>1817.6</ele>
        <time>2018-06-23T14:52:34Z</time>
      </trkpt>
      <trkpt lat="44.623550" lon="6.721742">
        <ele>1818.0</ele>
        <time>2018-06-23T14:52:43Z</time>
      </trkpt>
      <trkpt lat="44.623470" lon="6.721742">
        <ele>1817.6</ele>
        <time>2018-06-23T14:52:49Z</time>
      </trkpt>
      <trkpt lat="44.623385" lon="6.721707">
        <ele>1818.5</ele>
        <time>2018-06-23T14:52:55Z</time>
      </trkpt>
      <trkpt lat="44.623375" lon="6.721700">
        <ele>1819.0</ele>
        <time>2018-06-23T14:52:56Z</time>
      </trkpt>
      <trkpt lat="44.623138" lon="6.721723">
        <ele>1823.0</ele>
        <time>2018-06-23T14:53:14Z</time>
      </trkpt>
      <trkpt lat="44.623057" lon="6.721743">
        <ele>1823.5</ele>
        <time>2018-06-23T14:53:22Z</time>
      </trkpt>
      <trkpt lat="44.622985" lon="6.721782">
        <ele>1825.5</ele>
        <time>2018-06-23T14:53:30Z</time>
      </trkpt>
      <trkpt lat="44.622897" lon="6.721803">
        <ele>1826.3</ele>
        <time>2018-06-23T14:53:36Z</time>
      </trkpt>
      <trkpt lat="44.622823" lon="6.721860">
        <ele>1827.4</ele>
        <time>2018-06-23T14:53:44Z</time>
      </trkpt>
      <trkpt lat="44.622698" lon="6.722017">
        <ele>1826.6</ele>
        <time>2018-06-23T14:53:59Z</time>
      </trkpt>
      <trkpt lat="44.622623" lon="6.722230">
        <ele>1824.6</ele>
        <time>2018-06-23T14:54:12Z</time>
      </trkpt>
      <trkpt lat="44.622562" lon="6.722322">
        <ele>1823.5</ele>
        <time>2018-06-23T14:54:20Z</time>
      </trkpt>
      <trkpt lat="44.622485" lon="6.722372">
        <ele>1822.4</ele>
        <time>2018-06-23T14:54:27Z</time>
      </trkpt>
      <trkpt lat="44.622418" lon="6.722403">
        <ele>1821.8</ele>
        <time>2018-06-23T14:54:33Z</time>
      </trkpt>
      <trkpt lat="44.622347" lon="6.722452">
        <ele>1819.6</ele>
        <time>2018-06-23T14:54:39Z</time>
      </trkpt>
      <trkpt lat="44.622268" lon="6.722480">
        <ele>1817.0</ele>
        <time>2018-06-23T14:54:47Z</time>
      </trkpt>
      <trkpt lat="44.622182" lon="6.722490">
        <ele>1816.3</ele>
        <time>2018-06-23T14:54:53Z</time>
      </trkpt>
      <trkpt lat="44.622095" lon="6.722460">
        <ele>1812.5</ele>
        <time>2018-06-23T14:55:17Z</time>
      </trkpt>
      <trkpt lat="44.622085" lon="6.722462">
        <ele>1812.5</ele>
        <time>2018-06-23T14:55:18Z</time>
      </trkpt>
      <trkpt lat="44.621952" lon="6.722357">
        <ele>1811.0</ele>
        <time>2018-06-23T14:55:32Z</time>
      </trkpt>
      <trkpt lat="44.621797" lon="6.722292">
        <ele>1809.0</ele>
        <time>2018-06-23T14:55:50Z</time>
      </trkpt>
      <trkpt lat="44.621645" lon="6.722175">
        <ele>1808.8</ele>
        <time>2018-06-23T14:56:05Z</time>
      </trkpt>
      <trkpt lat="44.621478" lon="6.722160">
        <ele>1807.8</ele>
        <time>2018-06-23T14:56:19Z</time>
      </trkpt>
      <trkpt lat="44.621467" lon="6.722158">
        <ele>1807.8</ele>
        <time>2018-06-23T14:56:20Z</time>
      </trkpt>
      <trkpt lat="44.621308" lon="6.722168">
        <ele>1807.0</ele>
        <time>2018-06-23T14:56:39Z</time>
      </trkpt>
      <trkpt lat="44.621143" lon="6.722138">
        <ele>1804.6</ele>
        <time>2018-06-23T14:56:56Z</time>
      </trkpt>
      <trkpt lat="44.621060" lon="6.722153">
        <ele>1802.6</ele>
        <time>2018-06-23T14:57:08Z</time>
      </trkpt>
      <trkpt lat="44.620973" lon="6.722155">
        <ele>1801.0</ele>
        <time>2018-06-23T14:57:15Z</time>
      </trkpt>
      <trkpt lat="44.620873" lon="6.722117">
        <ele>1799.8</ele>
        <time>2018-06-23T14:57:23Z</time>
      </trkpt>
      <trkpt lat="44.620655" lon="6.721998">
        <ele>1797.8</ele>
        <time>2018-06-23T14:57:41Z</time>
      </trkpt>
      <trkpt lat="44.620595" lon="6.721925">
        <ele>1796.8</ele>
        <time>2018-06-23T14:57:47Z</time>
      </trkpt>
      <trkpt lat="44.620582" lon="6.721805">
        <ele>1796.4</ele>
        <time>2018-06-23T14:57:54Z</time>
      </trkpt>
      <trkpt lat="44.620650" lon="6.721587">
        <ele>1794.0</ele>
        <time>2018-06-23T14:58:06Z</time>
      </trkpt>
      <trkpt lat="44.620677" lon="6.721468">
        <ele>1793.1</ele>
        <time>2018-06-23T14:58:13Z</time>
      </trkpt>
      <trkpt lat="44.620715" lon="6.721355">
        <ele>1792.4</ele>
        <time>2018-06-23T14:58:20Z</time>
      </trkpt>
      <trkpt lat="44.620765" lon="6.721260">
        <ele>1792.0</ele>
        <time>2018-06-23T14:58:27Z</time>
      </trkpt>
      <trkpt lat="44.620775" lon="6.721248">
        <ele>1792.1</ele>
        <time>2018-06-23T14:58:28Z</time>
      </trkpt>
      <trkpt lat="44.620955" lon="6.721012">
        <ele>1791.5</ele>
        <time>2018-06-23T14:59:06Z</time>
      </trkpt>
      <trkpt lat="44.621010" lon="6.720917">
        <ele>1791.3</ele>
        <time>2018-06-23T14:59:13Z</time>
      </trkpt>
      <trkpt lat="44.621137" lon="6.720762">
        <ele>1790.8</ele>
        <time>2018-06-23T14:59:26Z</time>
      </trkpt>
      <trkpt lat="44.621218" lon="6.720712">
        <ele>1789.8</ele>
        <time>2018-06-23T14:59:33Z</time>
      </trkpt>
      <trkpt lat="44.621222" lon="6.720713">
        <ele>1789.5</ele>
        <time>2018-06-23T14:59:34Z</time>
      </trkpt>
      <trkpt lat="44.621380" lon="6.720758">
        <ele>1788.8</ele>
        <time>2018-06-23T15:00:17Z</time>
      </trkpt>
      <trkpt lat="44.621498" lon="6.720600">
        <ele>1787.3</ele>
        <time>2018-06-23T15:00:28Z</time>
      </trkpt>
      <trkpt lat="44.621545" lon="6.720488">
        <ele>1786.6</ele>
        <time>2018-06-23T15:00:35Z</time>
      </trkpt>
      <trkpt lat="44.621575" lon="6.720403">
        <ele>1786.1</ele>
        <time>2018-06-23T15:02:31Z</time>
      </trkpt>
      <trkpt lat="44.621575" lon="6.720403">
        <ele>1786.1</ele>
        <time>2018-06-23T15:02:34Z</time>
      </trkpt>
    </trkseg>
  </trk>
</gpx>
